PWSweather.com
Personal Weather Stations
Station Observations
EI4HQ
Cork Harbour, CobhIE

Cork HarbourCobhIE

Lat: 51.85, Lon: -8.29

Elevation: 252

Station Type: Davis Vantage Pro2

http://www.corkharbourweather.ie

High Low Average
Temperature 54.1°F12.3°C 49.3°F9.6°C 51.4°F10.8°C
Dew Point 52.5°F11.4°C 48.4°F9.1°C 50.3°F10.2°C
Winds 31.0 mph 49.9 kmh 7.0 mph 11.3 kmh 19.0 mph S30.6 kmh S
Wind Gusts 49.0 mph78.9 kmh 11.0 mph17.7 kmh 30.0 mph48.3 kmh
Humidity 98% 92% 96%
Pressure 30.04 in1017.3 mb 29.91 in1012.9 mb -
Precipitation 0.11 in2.8 mm - -
Hour Temp Dew Point Humidity Winds Wind Gusts Pressure Precip Precip Rate Daily Precip Total
12:00 AM 50.9°F10.5°C 49.8°F9.9°C 96% 15.0 mph S24.1 kmh S 24.0 mph38.6 kmh 29.91 in1012.9 mb 0.00 in0.0 mm 0.00 in0.0 mm 0.00 in0.0 mm
12:03 AM 51.1°F10.6°C 49.8°F9.9°C 96% 15.0 mph S24.1 kmh S 23.0 mph37.0 kmh 29.92 in1013.2 mb 0.00 in0.0 mm 0.00 in0.0 mm 0.00 in0.0 mm
12:06 AM 51.1°F10.6°C 49.8°F9.9°C 96% 15.0 mph S24.1 kmh S 23.0 mph37.0 kmh 29.92 in1013.2 mb 0.00 in0.0 mm 0.00 in0.0 mm 0.00 in0.0 mm
12:09 AM 51.1°F10.6°C 49.8°F9.9°C 96% 14.0 mph S22.5 kmh S 23.0 mph37.0 kmh 29.91 in1012.9 mb 0.00 in0.0 mm 0.00 in0.0 mm 0.00 in0.0 mm
12:12 AM 51.1°F10.6°C 49.8°F9.9°C 96% 14.0 mph S22.5 kmh S 24.0 mph38.6 kmh 29.91 in1012.9 mb 0.01 in0.3 mm 0.20 in5.1 mm 0.01 in0.3 mm
12:15 AM 51.1°F10.6°C 49.8°F9.9°C 96% 15.0 mph S24.1 kmh S 24.0 mph38.6 kmh 29.91 in1012.9 mb 0.01 in0.3 mm 0.00 in0.0 mm 0.01 in0.3 mm
12:18 AM 51.1°F10.6°C 49.8°F9.9°C 96% 15.0 mph S24.1 kmh S 24.0 mph38.6 kmh 29.91 in1012.9 mb 0.01 in0.3 mm 0.00 in0.0 mm 0.01 in0.3 mm
12:21 AM 51.1°F10.6°C 49.8°F9.9°C 96% 16.0 mph S25.7 kmh S 24.0 mph38.6 kmh 29.91 in1012.9 mb 0.01 in0.3 mm 0.00 in0.0 mm 0.01 in0.3 mm
12:24 AM 51.1°F10.6°C 49.8°F9.9°C 96% 15.0 mph S24.1 kmh S 24.0 mph38.6 kmh 29.91 in1012.9 mb 0.01 in0.3 mm 0.00 in0.0 mm 0.01 in0.3 mm
12:27 AM 50.9°F10.5°C 49.8°F9.9°C 96% 14.0 mph S22.5 kmh S 21.0 mph33.8 kmh 29.91 in1012.9 mb 0.02 in0.5 mm 0.20 in5.1 mm 0.02 in0.5 mm
12:30 AM 50.9°F10.5°C 49.8°F9.9°C 96% 14.0 mph S22.5 kmh S 21.0 mph33.8 kmh 29.92 in1013.2 mb 0.02 in0.5 mm 0.00 in0.0 mm 0.02 in0.5 mm
12:33 AM 50.9°F10.5°C 49.8°F9.9°C 96% 14.0 mph S22.5 kmh S 21.0 mph33.8 kmh 29.92 in1013.2 mb 0.02 in0.5 mm 0.00 in0.0 mm 0.02 in0.5 mm
12:36 AM 51.1°F10.6°C 50.2°F10.1°C 97% 14.0 mph S22.5 kmh S 22.0 mph35.4 kmh 29.92 in1013.2 mb 0.02 in0.5 mm 0.00 in0.0 mm 0.02 in0.5 mm
12:39 AM 51.1°F10.6°C 50.4°F10.2°C 97% 14.0 mph S22.5 kmh S 22.0 mph35.4 kmh 29.93 in1013.5 mb 0.02 in0.5 mm 0.00 in0.0 mm 0.02 in0.5 mm
12:42 AM 51.1°F10.6°C 50.4°F10.2°C 97% 13.0 mph S20.9 kmh S 22.0 mph35.4 kmh 29.93 in1013.5 mb 0.02 in0.5 mm 0.00 in0.0 mm 0.02 in0.5 mm
12:45 AM 51.1°F10.6°C 50.4°F10.2°C 97% 14.0 mph S22.5 kmh S 22.0 mph35.4 kmh 29.92 in1013.2 mb 0.02 in0.5 mm 0.00 in0.0 mm 0.02 in0.5 mm
12:48 AM 51.3°F10.7°C 50.4°F10.2°C 97% 13.0 mph S20.9 kmh S 21.0 mph33.8 kmh 29.93 in1013.5 mb 0.04 in1.0 mm 0.40 in10.2 mm 0.04 in1.0 mm
12:51 AM 51.3°F10.7°C 50.4°F10.2°C 97% 13.0 mph S20.9 kmh S 21.0 mph33.8 kmh 29.93 in1013.5 mb 0.04 in1.0 mm 0.00 in0.0 mm 0.04 in1.0 mm
12:54 AM 51.1°F10.6°C 50.4°F10.2°C 97% 13.0 mph S20.9 kmh S 21.0 mph33.8 kmh 29.93 in1013.5 mb 0.05 in1.3 mm 0.20 in5.1 mm 0.05 in1.3 mm
12:57 AM 51.1°F10.6°C 50.4°F10.2°C 97% 13.0 mph S20.9 kmh S 21.0 mph33.8 kmh 29.93 in1013.5 mb 0.05 in1.3 mm 0.00 in0.0 mm 0.05 in1.3 mm
01:00 AM 51.1°F10.6°C 50.4°F10.2°C 97% 13.0 mph S20.9 kmh S 20.0 mph32.2 kmh 29.93 in1013.5 mb 0.06 in1.5 mm 0.01 in0.3 mm 0.06 in1.5 mm
01:03 AM 51.1°F10.6°C 50.4°F10.2°C 97% 12.0 mph S19.3 kmh S 20.0 mph32.2 kmh 29.93 in1013.5 mb 0.06 in1.5 mm 0.00 in0.0 mm 0.06 in1.5 mm
01:06 AM 51.1°F10.6°C 50.4°F10.2°C 97% 12.0 mph S19.3 kmh S 21.0 mph33.8 kmh 29.93 in1013.5 mb 0.06 in1.5 mm 0.00 in0.0 mm 0.06 in1.5 mm
01:09 AM 51.1°F10.6°C 50.4°F10.2°C 97% 13.0 mph S20.9 kmh S 21.0 mph33.8 kmh 29.93 in1013.5 mb 0.06 in1.5 mm 0.00 in0.0 mm 0.06 in1.5 mm
01:12 AM 51.1°F10.6°C 50.4°F10.2°C 97% 14.0 mph S22.5 kmh S 21.0 mph33.8 kmh 29.93 in1013.5 mb 0.06 in1.5 mm 0.00 in0.0 mm 0.06 in1.5 mm
01:15 AM 51.1°F10.6°C 50.4°F10.2°C 97% 14.0 mph S22.5 kmh S 23.0 mph37.0 kmh 29.93 in1013.5 mb 0.06 in1.5 mm 0.00 in0.0 mm 0.06 in1.5 mm
01:18 AM 51.1°F10.6°C 50.4°F10.2°C 97% 15.0 mph S24.1 kmh S 23.0 mph37.0 kmh 29.93 in1013.5 mb 0.06 in1.5 mm 0.00 in0.0 mm 0.07 in1.8 mm
01:21 AM 51.1°F10.6°C 50.2°F10.1°C 97% 15.0 mph S24.1 kmh S 23.0 mph37.0 kmh 29.93 in1013.5 mb 0.06 in1.5 mm 0.00 in0.0 mm 0.07 in1.8 mm
01:24 AM 50.9°F10.5°C 50.0°F10.0°C 97% 14.0 mph S22.5 kmh S 23.0 mph37.0 kmh 29.93 in1013.5 mb 0.06 in1.5 mm 0.00 in0.0 mm 0.07 in1.8 mm
01:27 AM 50.9°F10.5°C 50.0°F10.0°C 97% 14.0 mph S22.5 kmh S 22.0 mph35.4 kmh 29.93 in1013.5 mb 0.06 in1.5 mm 0.00 in0.0 mm 0.07 in1.8 mm
01:30 AM 50.9°F10.5°C 50.0°F10.0°C 97% 13.0 mph S20.9 kmh S 21.0 mph33.8 kmh 29.93 in1013.5 mb 0.06 in1.5 mm 0.00 in0.0 mm 0.07 in1.8 mm
01:33 AM 50.9°F10.5°C 50.0°F10.0°C 97% 14.0 mph S22.5 kmh S 21.0 mph33.8 kmh 29.92 in1013.2 mb 0.06 in1.5 mm 0.00 in0.0 mm 0.07 in1.8 mm
01:36 AM 50.9°F10.5°C 50.0°F10.0°C 97% 14.0 mph S22.5 kmh S 22.0 mph35.4 kmh 29.92 in1013.2 mb 0.06 in1.5 mm 0.00 in0.0 mm 0.07 in1.8 mm
01:39 AM 50.9°F10.5°C 50.0°F10.0°C 97% 14.0 mph S22.5 kmh S 22.0 mph35.4 kmh 29.92 in1013.2 mb 0.05 in1.3 mm 0.00 in0.0 mm 0.07 in1.8 mm
01:42 AM 50.9°F10.5°C 50.0°F10.0°C 97% 15.0 mph S24.1 kmh S 22.0 mph35.4 kmh 29.92 in1013.2 mb 0.05 in1.3 mm 0.00 in0.0 mm 0.07 in1.8 mm
01:45 AM 50.7°F10.4°C 50.0°F10.0°C 97% 14.0 mph S22.5 kmh S 21.0 mph33.8 kmh 29.92 in1013.2 mb 0.05 in1.3 mm 0.00 in0.0 mm 0.07 in1.8 mm
01:48 AM 50.9°F10.5°C 50.0°F10.0°C 97% 14.0 mph S22.5 kmh S 21.0 mph33.8 kmh 29.92 in1013.2 mb 0.03 in0.8 mm 0.00 in0.0 mm 0.07 in1.8 mm
01:51 AM 50.7°F10.4°C 50.0°F10.0°C 97% 14.0 mph S22.5 kmh S 21.0 mph33.8 kmh 29.92 in1013.2 mb 0.03 in0.8 mm 0.00 in0.0 mm 0.07 in1.8 mm
01:54 AM 50.7°F10.4°C 50.0°F10.0°C 97% 14.0 mph S22.5 kmh S 21.0 mph33.8 kmh 29.92 in1013.2 mb 0.02 in0.5 mm 0.00 in0.0 mm 0.07 in1.8 mm
01:57 AM 50.7°F10.4°C 49.8°F9.9°C 97% 14.0 mph S22.5 kmh S 21.0 mph33.8 kmh 29.92 in1013.2 mb 0.02 in0.5 mm 0.00 in0.0 mm 0.07 in1.8 mm
02:00 AM 50.7°F10.4°C 49.8°F9.9°C 97% 14.0 mph S22.5 kmh S 21.0 mph33.8 kmh 29.91 in1012.9 mb 0.02 in0.5 mm 0.00 in0.0 mm 0.07 in1.8 mm
02:03 AM 50.7°F10.4°C 49.8°F9.9°C 97% 14.0 mph S22.5 kmh S 21.0 mph33.8 kmh 29.92 in1013.2 mb 0.02 in0.5 mm 0.00 in0.0 mm 0.07 in1.8 mm
02:06 AM 50.7°F10.4°C 49.8°F9.9°C 97% 14.0 mph S22.5 kmh S 23.0 mph37.0 kmh 29.92 in1013.2 mb 0.02 in0.5 mm 0.00 in0.0 mm 0.07 in1.8 mm
02:09 AM 50.7°F10.4°C 49.8°F9.9°C 97% 14.0 mph S22.5 kmh S 23.0 mph37.0 kmh 29.92 in1013.2 mb 0.02 in0.5 mm 0.00 in0.0 mm 0.07 in1.8 mm
02:12 AM 50.5°F10.3°C 49.8°F9.9°C 97% 14.0 mph S22.5 kmh S 23.0 mph37.0 kmh 29.92 in1013.2 mb 0.01 in0.3 mm 0.00 in0.0 mm 0.07 in1.8 mm
02:15 AM 50.5°F10.3°C 49.8°F9.9°C 97% 14.0 mph S22.5 kmh S 21.0 mph33.8 kmh 29.92 in1013.2 mb 0.01 in0.3 mm 0.00 in0.0 mm 0.07 in1.8 mm
02:18 AM 50.5°F10.3°C 49.8°F9.9°C 97% 14.0 mph S22.5 kmh S 21.0 mph33.8 kmh 29.92 in1013.2 mb 0.00 in0.0 mm 0.00 in0.0 mm 0.07 in1.8 mm
02:21 AM 50.5°F10.3°C 49.8°F9.9°C 97% 12.0 mph S19.3 kmh S 21.0 mph33.8 kmh 29.92 in1013.2 mb 0.00 in0.0 mm 0.00 in0.0 mm 0.07 in1.8 mm
02:24 AM 50.7°F10.4°C 49.8°F9.9°C 97% 12.0 mph S19.3 kmh S 21.0 mph33.8 kmh 29.92 in1013.2 mb 0.00 in0.0 mm 0.00 in0.0 mm 0.07 in1.8 mm
02:27 AM 50.7°F10.4°C 49.8°F9.9°C 97% 12.0 mph S19.3 kmh S 21.0 mph33.8 kmh 29.92 in1013.2 mb 0.00 in0.0 mm 0.00 in0.0 mm 0.07 in1.8 mm
02:30 AM 50.7°F10.4°C 49.8°F9.9°C 97% 12.0 mph S19.3 kmh S 19.0 mph30.6 kmh 29.92 in1013.2 mb 0.00 in0.0 mm 0.00 in0.0 mm 0.07 in1.8 mm
02:33 AM 50.5°F10.3°C 49.8°F9.9°C 97% 13.0 mph S20.9 kmh S 20.0 mph32.2 kmh 29.92 in1013.2 mb 0.00 in0.0 mm 0.00 in0.0 mm 0.07 in1.8 mm
02:36 AM 50.5°F10.3°C 49.8°F9.9°C 97% 12.0 mph S19.3 kmh S 20.0 mph32.2 kmh 29.92 in1013.2 mb 0.00 in0.0 mm 0.00 in0.0 mm 0.07 in1.8 mm
02:39 AM 50.5°F10.3°C 49.6°F9.8°C 97% 12.0 mph S19.3 kmh S 20.0 mph32.2 kmh 29.92 in1013.2 mb 0.00 in0.0 mm 0.00 in0.0 mm 0.07 in1.8 mm
02:42 AM 50.5°F10.3°C 49.6°F9.8°C 97% 12.0 mph SSE19.3 kmh SSE 19.0 mph30.6 kmh 29.92 in1013.2 mb 0.00 in0.0 mm 0.00 in0.0 mm 0.07 in1.8 mm
02:45 AM 50.4°F10.2°C 49.6°F9.8°C 97% 12.0 mph SSE19.3 kmh SSE 19.0 mph30.6 kmh 29.92 in1013.2 mb 0.00 in0.0 mm 0.00 in0.0 mm 0.07 in1.8 mm
02:48 AM 50.4°F10.2°C 49.5°F9.7°C 97% 11.0 mph SSE17.7 kmh SSE 19.0 mph30.6 kmh 29.93 in1013.5 mb 0.00 in0.0 mm 0.00 in0.0 mm 0.07 in1.8 mm
02:51 AM 50.4°F10.2°C 49.5°F9.7°C 97% 11.0 mph S17.7 kmh S 16.0 mph25.7 kmh 29.93 in1013.5 mb 0.00 in0.0 mm 0.00 in0.0 mm 0.07 in1.8 mm
02:54 AM 50.4°F10.2°C 49.5°F9.7°C 97% 11.0 mph S17.7 kmh S 17.0 mph27.4 kmh 29.93 in1013.5 mb 0.00 in0.0 mm 0.00 in0.0 mm 0.07 in1.8 mm
02:57 AM 50.4°F10.2°C 49.5°F9.7°C 97% 11.0 mph S17.7 kmh S 17.0 mph27.4 kmh 29.93 in1013.5 mb 0.00 in0.0 mm 0.00 in0.0 mm 0.07 in1.8 mm
03:00 AM 50.4°F10.2°C 49.5°F9.7°C 97% 12.0 mph S19.3 kmh S 18.0 mph29.0 kmh 29.93 in1013.5 mb 0.00 in0.0 mm 0.00 in0.0 mm 0.07 in1.8 mm
03:03 AM 50.4°F10.2°C 49.5°F9.7°C 97% 11.0 mph S17.7 kmh S 18.0 mph29.0 kmh 29.93 in1013.5 mb 0.00 in0.0 mm 0.00 in0.0 mm 0.07 in1.8 mm
03:06 AM 50.2°F10.1°C 49.5°F9.7°C 97% 11.0 mph S17.7 kmh S 18.0 mph29.0 kmh 29.94 in1013.9 mb 0.00 in0.0 mm 0.00 in0.0 mm 0.07 in1.8 mm
03:09 AM 50.4°F10.2°C 49.5°F9.7°C 97% 11.0 mph S17.7 kmh S 17.0 mph27.4 kmh 29.94 in1013.9 mb 0.00 in0.0 mm 0.00 in0.0 mm 0.07 in1.8 mm
03:12 AM 50.4°F10.2°C 49.5°F9.7°C 97% 11.0 mph S17.7 kmh S 16.0 mph25.7 kmh 29.94 in1013.9 mb 0.00 in0.0 mm 0.00 in0.0 mm 0.07 in1.8 mm
03:15 AM 50.2°F10.1°C 49.5°F9.7°C 97% 10.0 mph S16.1 kmh S 16.0 mph25.7 kmh 29.94 in1013.9 mb 0.00 in0.0 mm 0.00 in0.0 mm 0.07 in1.8 mm
03:18 AM 50.4°F10.2°C 49.5°F9.7°C 97% 11.0 mph S17.7 kmh S 15.0 mph24.1 kmh 29.94 in1013.9 mb 0.00 in0.0 mm 0.00 in0.0 mm 0.07 in1.8 mm
03:21 AM 50.4°F10.2°C 49.5°F9.7°C 97% 11.0 mph S17.7 kmh S 16.0 mph25.7 kmh 29.94 in1013.9 mb 0.00 in0.0 mm 0.00 in0.0 mm 0.07 in1.8 mm
03:24 AM 50.4°F10.2°C 49.5°F9.7°C 97% 11.0 mph S17.7 kmh S 18.0 mph29.0 kmh 29.93 in1013.5 mb 0.00 in0.0 mm 0.00 in0.0 mm 0.07 in1.8 mm
03:27 AM 50.4°F10.2°C 49.6°F9.8°C 97% 11.0 mph S17.7 kmh S 18.0 mph29.0 kmh 29.94 in1013.9 mb 0.00 in0.0 mm 0.00 in0.0 mm 0.07 in1.8 mm
03:30 AM 50.4°F10.2°C 49.6°F9.8°C 97% 11.0 mph SSE17.7 kmh SSE 18.0 mph29.0 kmh 29.94 in1013.9 mb 0.00 in0.0 mm 0.00 in0.0 mm 0.07 in1.8 mm
03:33 AM 50.4°F10.2°C 49.6°F9.8°C 97% 11.0 mph SSE17.7 kmh SSE 15.0 mph24.1 kmh 29.93 in1013.5 mb 0.00 in0.0 mm 0.00 in0.0 mm 0.07 in1.8 mm
03:36 AM 50.4°F10.2°C 49.5°F9.7°C 97% 11.0 mph SSE17.7 kmh SSE 15.0 mph24.1 kmh 29.94 in1013.9 mb 0.00 in0.0 mm 0.00 in0.0 mm 0.07 in1.8 mm
03:39 AM 50.2°F10.1°C 49.5°F9.7°C 97% 11.0 mph SSE17.7 kmh SSE 16.0 mph25.7 kmh 29.94 in1013.9 mb 0.00 in0.0 mm 0.00 in0.0 mm 0.07 in1.8 mm
03:42 AM 50.2°F10.1°C 49.3°F9.6°C 97% 11.0 mph SSE17.7 kmh SSE 16.0 mph25.7 kmh 29.94 in1013.9 mb 0.00 in0.0 mm 0.00 in0.0 mm 0.07 in1.8 mm
03:45 AM 50.0°F10.0°C 49.1°F9.5°C 97% 10.0 mph SSE16.1 kmh SSE 16.0 mph25.7 kmh 29.94 in1013.9 mb 0.00 in0.0 mm 0.00 in0.0 mm 0.07 in1.8 mm
03:48 AM 50.0°F10.0°C 49.1°F9.5°C 97% 9.0 mph SSE14.5 kmh SSE 16.0 mph25.7 kmh 29.94 in1013.9 mb 0.00 in0.0 mm 0.00 in0.0 mm 0.07 in1.8 mm
03:51 AM 50.0°F10.0°C 49.1°F9.5°C 97% 8.0 mph SSE12.9 kmh SSE 16.0 mph25.7 kmh 29.94 in1013.9 mb 0.00 in0.0 mm 0.00 in0.0 mm 0.07 in1.8 mm
03:54 AM 49.8°F9.9°C 49.1°F9.5°C 97% 7.0 mph S11.3 kmh S 11.0 mph17.7 kmh 29.94 in1013.9 mb 0.00 in0.0 mm 0.00 in0.0 mm 0.07 in1.8 mm
03:57 AM 49.8°F9.9°C 49.1°F9.5°C 97% 7.0 mph SSE11.3 kmh SSE 11.0 mph17.7 kmh 29.94 in1013.9 mb 0.00 in0.0 mm 0.00 in0.0 mm 0.07 in1.8 mm
04:00 AM 49.8°F9.9°C 48.9°F9.4°C 97% 7.0 mph SSE11.3 kmh SSE 11.0 mph17.7 kmh 29.94 in1013.9 mb 0.00 in0.0 mm 0.00 in0.0 mm 0.07 in1.8 mm
04:03 AM 49.8°F9.9°C 48.9°F9.4°C 97% 8.0 mph SSE12.9 kmh SSE 12.0 mph19.3 kmh 29.94 in1013.9 mb 0.00 in0.0 mm 0.00 in0.0 mm 0.07 in1.8 mm
04:06 AM 49.6°F9.8°C 48.9°F9.4°C 97% 8.0 mph SSE12.9 kmh SSE 13.0 mph20.9 kmh 29.94 in1013.9 mb 0.00 in0.0 mm 0.00 in0.0 mm 0.07 in1.8 mm
04:09 AM 49.5°F9.7°C 48.7°F9.3°C 97% 9.0 mph SSE14.5 kmh SSE 14.0 mph22.5 kmh 29.95 in1014.2 mb 0.00 in0.0 mm 0.00 in0.0 mm 0.07 in1.8 mm
04:12 AM 49.5°F9.7°C 48.6°F9.2°C 97% 10.0 mph SSE16.1 kmh SSE 15.0 mph24.1 kmh 29.95 in1014.2 mb 0.00 in0.0 mm 0.00 in0.0 mm 0.07 in1.8 mm
04:15 AM 49.5°F9.7°C 48.6°F9.2°C 97% 11.0 mph SSE17.7 kmh SSE 15.0 mph24.1 kmh 29.95 in1014.2 mb 0.00 in0.0 mm 0.00 in0.0 mm 0.07 in1.8 mm
04:18 AM 49.3°F9.6°C 48.6°F9.2°C 97% 11.0 mph SSE17.7 kmh SSE 15.0 mph24.1 kmh 29.94 in1013.9 mb 0.00 in0.0 mm 0.00 in0.0 mm 0.07 in1.8 mm
04:21 AM 49.3°F9.6°C 48.6°F9.2°C 97% 10.0 mph SSE16.1 kmh SSE 15.0 mph24.1 kmh 29.93 in1013.5 mb 0.00 in0.0 mm 0.00 in0.0 mm 0.07 in1.8 mm
04:24 AM 49.3°F9.6°C 48.6°F9.2°C 97% 10.0 mph SSE16.1 kmh SSE 15.0 mph24.1 kmh 29.93 in1013.5 mb 0.00 in0.0 mm 0.00 in0.0 mm 0.07 in1.8 mm
04:27 AM 49.3°F9.6°C 48.4°F9.1°C 97% 10.0 mph SSE16.1 kmh SSE 15.0 mph24.1 kmh 29.94 in1013.9 mb 0.00 in0.0 mm 0.00 in0.0 mm 0.07 in1.8 mm
04:30 AM 49.3°F9.6°C 48.4°F9.1°C 97% 10.0 mph SSE16.1 kmh SSE 15.0 mph24.1 kmh 29.94 in1013.9 mb 0.00 in0.0 mm 0.00 in0.0 mm 0.07 in1.8 mm
04:33 AM 49.3°F9.6°C 48.4°F9.1°C 97% 11.0 mph SSE17.7 kmh SSE 17.0 mph27.4 kmh 29.95 in1014.2 mb 0.00 in0.0 mm 0.00 in0.0 mm 0.07 in1.8 mm
04:36 AM 49.3°F9.6°C 48.4°F9.1°C 97% 11.0 mph SSE17.7 kmh SSE 17.0 mph27.4 kmh 29.95 in1014.2 mb 0.00 in0.0 mm 0.00 in0.0 mm 0.07 in1.8 mm
04:39 AM 49.3°F9.6°C 48.6°F9.2°C 97% 12.0 mph SSE19.3 kmh SSE 17.0 mph27.4 kmh 29.95 in1014.2 mb 0.00 in0.0 mm 0.00 in0.0 mm 0.07 in1.8 mm
04:42 AM 49.5°F9.7°C 48.6°F9.2°C 97% 13.0 mph SSE20.9 kmh SSE 20.0 mph32.2 kmh 29.95 in1014.2 mb 0.00 in0.0 mm 0.00 in0.0 mm 0.07 in1.8 mm
04:45 AM 49.5°F9.7°C 48.6°F9.2°C 97% 13.0 mph S20.9 kmh S 20.0 mph32.2 kmh 29.96 in1014.6 mb 0.00 in0.0 mm 0.00 in0.0 mm 0.07 in1.8 mm
04:48 AM 49.5°F9.7°C 48.7°F9.3°C 97% 13.0 mph S20.9 kmh S 24.0 mph38.6 kmh 29.96 in1014.6 mb 0.00 in0.0 mm 0.00 in0.0 mm 0.07 in1.8 mm
04:51 AM 49.6°F9.8°C 48.7°F9.3°C 97% 13.0 mph S20.9 kmh S 24.0 mph38.6 kmh 29.96 in1014.6 mb 0.00 in0.0 mm 0.00 in0.0 mm 0.07 in1.8 mm
04:54 AM 49.6°F9.8°C 49.1°F9.5°C 98% 13.0 mph S20.9 kmh S 24.0 mph38.6 kmh 29.96 in1014.6 mb 0.00 in0.0 mm 0.00 in0.0 mm 0.07 in1.8 mm
04:57 AM 49.8°F9.9°C 49.3°F9.6°C 98% 14.0 mph S22.5 kmh S 24.0 mph38.6 kmh 29.96 in1014.6 mb 0.00 in0.0 mm 0.00 in0.0 mm 0.07 in1.8 mm
05:00 AM 50.0°F10.0°C 49.5°F9.7°C 98% 14.0 mph S22.5 kmh S 22.0 mph35.4 kmh 29.96 in1014.6 mb 0.00 in0.0 mm 0.00 in0.0 mm 0.07 in1.8 mm
05:03 AM 50.2°F10.1°C 49.6°F9.8°C 98% 15.0 mph S24.1 kmh S 23.0 mph37.0 kmh 29.96 in1014.6 mb 0.00 in0.0 mm 0.00 in0.0 mm 0.07 in1.8 mm
05:06 AM 50.2°F10.1°C 49.6°F9.8°C 98% 15.0 mph S24.1 kmh S 23.0 mph37.0 kmh 29.96 in1014.6 mb 0.00 in0.0 mm 0.00 in0.0 mm 0.07 in1.8 mm
05:09 AM 50.2°F10.1°C 49.6°F9.8°C 98% 15.0 mph S24.1 kmh S 23.0 mph37.0 kmh 29.96 in1014.6 mb 0.01 in0.3 mm 0.20 in5.1 mm 0.08 in2.0 mm
05:12 AM 50.4°F10.2°C 49.8°F9.9°C 98% 15.0 mph S24.1 kmh S 23.0 mph37.0 kmh 29.96 in1014.6 mb 0.01 in0.3 mm 0.00 in0.0 mm 0.08 in2.0 mm
05:15 AM 50.4°F10.2°C 49.8°F9.9°C 98% 15.0 mph S24.1 kmh S 23.0 mph37.0 kmh 29.96 in1014.6 mb 0.01 in0.3 mm 0.00 in0.0 mm 0.08 in2.0 mm
05:18 AM 50.4°F10.2°C 49.8°F9.9°C 98% 16.0 mph S25.7 kmh S 24.0 mph38.6 kmh 29.96 in1014.6 mb 0.01 in0.3 mm 0.00 in0.0 mm 0.08 in2.0 mm
05:21 AM 50.4°F10.2°C 49.8°F9.9°C 98% 17.0 mph S27.4 kmh S 25.0 mph40.2 kmh 29.96 in1014.6 mb 0.01 in0.3 mm 0.00 in0.0 mm 0.08 in2.0 mm
05:24 AM 50.4°F10.2°C 49.8°F9.9°C 98% 17.0 mph S27.4 kmh S 26.0 mph41.8 kmh 29.96 in1014.6 mb 0.01 in0.3 mm 0.00 in0.0 mm 0.08 in2.0 mm
05:27 AM 50.4°F10.2°C 49.8°F9.9°C 98% 18.0 mph S29.0 kmh S 26.0 mph41.8 kmh 29.96 in1014.6 mb 0.01 in0.3 mm 0.00 in0.0 mm 0.08 in2.0 mm
05:30 AM 50.4°F10.2°C 49.8°F9.9°C 98% 17.0 mph S27.4 kmh S 26.0 mph41.8 kmh 29.96 in1014.6 mb 0.01 in0.3 mm 0.00 in0.0 mm 0.08 in2.0 mm
05:33 AM 50.4°F10.2°C 49.8°F9.9°C 98% 17.0 mph S27.4 kmh S 26.0 mph41.8 kmh 29.96 in1014.6 mb 0.01 in0.3 mm 0.00 in0.0 mm 0.08 in2.0 mm
05:36 AM 50.4°F10.2°C 49.8°F9.9°C 98% 18.0 mph S29.0 kmh S 27.0 mph43.5 kmh 29.96 in1014.6 mb 0.01 in0.3 mm 0.00 in0.0 mm 0.08 in2.0 mm
05:39 AM 50.5°F10.3°C 50.0°F10.0°C 98% 18.0 mph S29.0 kmh S 28.0 mph45.1 kmh 29.97 in1014.9 mb 0.01 in0.3 mm 0.00 in0.0 mm 0.08 in2.0 mm
05:42 AM 50.5°F10.3°C 50.0°F10.0°C 98% 18.0 mph S29.0 kmh S 28.0 mph45.1 kmh 29.97 in1014.9 mb 0.01 in0.3 mm 0.00 in0.0 mm 0.08 in2.0 mm
05:45 AM 50.7°F10.4°C 50.2°F10.1°C 98% 19.0 mph S30.6 kmh S 32.0 mph51.5 kmh 29.97 in1014.9 mb 0.01 in0.3 mm 0.00 in0.0 mm 0.08 in2.0 mm
05:48 AM 50.9°F10.5°C 50.4°F10.2°C 98% 20.0 mph S32.2 kmh S 32.0 mph51.5 kmh 29.97 in1014.9 mb 0.01 in0.3 mm 0.00 in0.0 mm 0.08 in2.0 mm
05:51 AM 50.9°F10.5°C 50.4°F10.2°C 98% 20.0 mph S32.2 kmh S 32.0 mph51.5 kmh 29.97 in1014.9 mb 0.01 in0.3 mm 0.00 in0.0 mm 0.08 in2.0 mm
05:54 AM 51.1°F10.6°C 50.5°F10.3°C 98% 20.0 mph S32.2 kmh S 31.0 mph49.9 kmh 29.97 in1014.9 mb 0.01 in0.3 mm 0.00 in0.0 mm 0.08 in2.0 mm
05:57 AM 51.1°F10.6°C 50.5°F10.3°C 98% 20.0 mph S32.2 kmh S 31.0 mph49.9 kmh 29.97 in1014.9 mb 0.01 in0.3 mm 0.00 in0.0 mm 0.08 in2.0 mm
06:00 AM 51.1°F10.6°C 50.5°F10.3°C 98% 20.0 mph S32.2 kmh S 30.0 mph48.3 kmh 29.97 in1014.9 mb 0.01 in0.3 mm 0.00 in0.0 mm 0.08 in2.0 mm
06:03 AM 51.1°F10.6°C 50.5°F10.3°C 98% 20.0 mph S32.2 kmh S 30.0 mph48.3 kmh 29.97 in1014.9 mb 0.01 in0.3 mm 0.00 in0.0 mm 0.08 in2.0 mm
06:06 AM 51.1°F10.6°C 50.5°F10.3°C 98% 20.0 mph S32.2 kmh S 30.0 mph48.3 kmh 29.97 in1014.9 mb 0.01 in0.3 mm 0.00 in0.0 mm 0.08 in2.0 mm
06:09 AM 51.3°F10.7°C 50.7°F10.4°C 98% 19.0 mph S30.6 kmh S 29.0 mph46.7 kmh 29.96 in1014.6 mb 0.00 in0.0 mm 0.00 in0.0 mm 0.08 in2.0 mm
06:12 AM 51.3°F10.7°C 50.7°F10.4°C 98% 19.0 mph S30.6 kmh S 29.0 mph46.7 kmh 29.96 in1014.6 mb 0.00 in0.0 mm 0.00 in0.0 mm 0.08 in2.0 mm
06:15 AM 51.3°F10.7°C 50.7°F10.4°C 98% 19.0 mph S30.6 kmh S 29.0 mph46.7 kmh 29.96 in1014.6 mb 0.00 in0.0 mm 0.00 in0.0 mm 0.08 in2.0 mm
06:18 AM 51.4°F10.8°C 50.9°F10.5°C 98% 18.0 mph S29.0 kmh S 30.0 mph48.3 kmh 29.96 in1014.6 mb 0.00 in0.0 mm 0.00 in0.0 mm 0.08 in2.0 mm
06:21 AM 51.4°F10.8°C 50.9°F10.5°C 98% 19.0 mph S30.6 kmh S 30.0 mph48.3 kmh 29.97 in1014.9 mb 0.00 in0.0 mm 0.00 in0.0 mm 0.08 in2.0 mm
06:24 AM 51.4°F10.8°C 50.9°F10.5°C 98% 20.0 mph S32.2 kmh S 30.0 mph48.3 kmh 29.97 in1014.9 mb 0.00 in0.0 mm 0.00 in0.0 mm 0.08 in2.0 mm
06:27 AM 51.6°F10.9°C 51.1°F10.6°C 98% 21.0 mph S33.8 kmh S 30.0 mph48.3 kmh 29.97 in1014.9 mb 0.00 in0.0 mm 0.00 in0.0 mm 0.08 in2.0 mm
06:30 AM 51.6°F10.9°C 51.1°F10.6°C 98% 20.0 mph S32.2 kmh S 33.0 mph53.1 kmh 29.97 in1014.9 mb 0.00 in0.0 mm 0.00 in0.0 mm 0.08 in2.0 mm
06:33 AM 51.4°F10.8°C 50.9°F10.5°C 98% 19.0 mph S30.6 kmh S 33.0 mph53.1 kmh 29.98 in1015.2 mb 0.00 in0.0 mm 0.00 in0.0 mm 0.08 in2.0 mm
06:36 AM 51.3°F10.7°C 50.4°F10.2°C 97% 20.0 mph S32.2 kmh S 33.0 mph53.1 kmh 29.97 in1014.9 mb 0.00 in0.0 mm 0.00 in0.0 mm 0.08 in2.0 mm
06:39 AM 51.1°F10.6°C 50.5°F10.3°C 98% 19.0 mph S30.6 kmh S 30.0 mph48.3 kmh 29.97 in1014.9 mb 0.00 in0.0 mm 0.00 in0.0 mm 0.08 in2.0 mm
06:42 AM 51.1°F10.6°C 50.5°F10.3°C 98% 20.0 mph S32.2 kmh S 30.0 mph48.3 kmh 29.98 in1015.2 mb 0.00 in0.0 mm 0.00 in0.0 mm 0.08 in2.0 mm
06:45 AM 50.9°F10.5°C 50.4°F10.2°C 98% 20.0 mph S32.2 kmh S 28.0 mph45.1 kmh 29.98 in1015.2 mb 0.00 in0.0 mm 0.00 in0.0 mm 0.08 in2.0 mm
06:48 AM 50.9°F10.5°C 50.4°F10.2°C 98% 19.0 mph S30.6 kmh S 28.0 mph45.1 kmh 29.98 in1015.2 mb 0.00 in0.0 mm 0.00 in0.0 mm 0.08 in2.0 mm
06:51 AM 50.9°F10.5°C 50.0°F10.0°C 97% 19.0 mph S30.6 kmh S 28.0 mph45.1 kmh 29.98 in1015.2 mb 0.00 in0.0 mm 0.00 in0.0 mm 0.08 in2.0 mm
06:54 AM 50.7°F10.4°C 50.2°F10.1°C 98% 19.0 mph S30.6 kmh S 30.0 mph48.3 kmh 29.98 in1015.2 mb 0.00 in0.0 mm 0.00 in0.0 mm 0.08 in2.0 mm
06:57 AM 50.7°F10.4°C 50.2°F10.1°C 98% 19.0 mph S30.6 kmh S 30.0 mph48.3 kmh 29.98 in1015.2 mb 0.00 in0.0 mm 0.00 in0.0 mm 0.08 in2.0 mm
07:00 AM 50.9°F10.5°C 50.4°F10.2°C 98% 19.0 mph S30.6 kmh S 33.0 mph53.1 kmh 29.98 in1015.2 mb 0.00 in0.0 mm 0.00 in0.0 mm 0.08 in2.0 mm
07:03 AM 50.9°F10.5°C 50.4°F10.2°C 98% 20.0 mph S32.2 kmh S 33.0 mph53.1 kmh 29.98 in1015.2 mb 0.00 in0.0 mm 0.00 in0.0 mm 0.08 in2.0 mm
07:06 AM 51.1°F10.6°C 50.5°F10.3°C 98% 20.0 mph S32.2 kmh S 33.0 mph53.1 kmh 29.98 in1015.2 mb 0.00 in0.0 mm 0.00 in0.0 mm 0.08 in2.0 mm
07:09 AM 51.1°F10.6°C 50.5°F10.3°C 98% 20.0 mph S32.2 kmh S 31.0 mph49.9 kmh 29.98 in1015.2 mb 0.00 in0.0 mm 0.00 in0.0 mm 0.08 in2.0 mm
07:12 AM 51.1°F10.6°C 50.5°F10.3°C 98% 19.0 mph S30.6 kmh S 31.0 mph49.9 kmh 29.98 in1015.2 mb 0.00 in0.0 mm 0.00 in0.0 mm 0.08 in2.0 mm
07:15 AM 51.3°F10.7°C 50.7°F10.4°C 98% 19.0 mph S30.6 kmh S 33.0 mph53.1 kmh 29.99 in1015.6 mb 0.00 in0.0 mm 0.00 in0.0 mm 0.08 in2.0 mm
07:18 AM 51.3°F10.7°C 50.7°F10.4°C 98% 19.0 mph S30.6 kmh S 33.0 mph53.1 kmh 29.99 in1015.6 mb 0.00 in0.0 mm 0.00 in0.0 mm 0.08 in2.0 mm
07:21 AM 51.3°F10.7°C 50.7°F10.4°C 98% 19.0 mph S30.6 kmh S 33.0 mph53.1 kmh 29.99 in1015.6 mb 0.00 in0.0 mm 0.00 in0.0 mm 0.08 in2.0 mm
07:24 AM 51.3°F10.7°C 50.7°F10.4°C 98% 18.0 mph S29.0 kmh S 30.0 mph48.3 kmh 29.99 in1015.6 mb 0.00 in0.0 mm 0.00 in0.0 mm 0.08 in2.0 mm
07:27 AM 51.3°F10.7°C 50.7°F10.4°C 98% 17.0 mph S27.4 kmh S 28.0 mph45.1 kmh 29.99 in1015.6 mb 0.00 in0.0 mm 0.00 in0.0 mm 0.08 in2.0 mm
07:30 AM 51.3°F10.7°C 50.7°F10.4°C 98% 17.0 mph S27.4 kmh S 28.0 mph45.1 kmh 29.99 in1015.6 mb 0.00 in0.0 mm 0.00 in0.0 mm 0.08 in2.0 mm
07:33 AM 51.1°F10.6°C 50.5°F10.3°C 98% 18.0 mph S29.0 kmh S 28.0 mph45.1 kmh 29.99 in1015.6 mb 0.00 in0.0 mm 0.00 in0.0 mm 0.08 in2.0 mm
07:36 AM 51.1°F10.6°C 50.5°F10.3°C 98% 18.0 mph S29.0 kmh S 28.0 mph45.1 kmh 29.99 in1015.6 mb 0.00 in0.0 mm 0.00 in0.0 mm 0.08 in2.0 mm
07:39 AM 50.9°F10.5°C 50.4°F10.2°C 98% 19.0 mph S30.6 kmh S 27.0 mph43.5 kmh 29.99 in1015.6 mb 0.00 in0.0 mm 0.00 in0.0 mm 0.08 in2.0 mm
07:42 AM 50.9°F10.5°C 50.4°F10.2°C 98% 18.0 mph S29.0 kmh S 27.0 mph43.5 kmh 29.99 in1015.6 mb 0.01 in0.3 mm 0.20 in5.1 mm 0.09 in2.3 mm
07:45 AM 50.9°F10.5°C 50.4°F10.2°C 98% 17.0 mph S27.4 kmh S 27.0 mph43.5 kmh 29.99 in1015.6 mb 0.01 in0.3 mm 0.00 in0.0 mm 0.09 in2.3 mm
07:48 AM 50.9°F10.5°C 50.4°F10.2°C 98% 18.0 mph S29.0 kmh S 27.0 mph43.5 kmh 29.99 in1015.6 mb 0.01 in0.3 mm 0.00 in0.0 mm 0.09 in2.3 mm
07:51 AM 50.9°F10.5°C 50.4°F10.2°C 98% 18.0 mph SSE29.0 kmh SSE 27.0 mph43.5 kmh 29.99 in1015.6 mb 0.01 in0.3 mm 0.00 in0.0 mm 0.09 in2.3 mm
07:54 AM 50.7°F10.4°C 50.2°F10.1°C 98% 18.0 mph SSE29.0 kmh SSE 27.0 mph43.5 kmh 29.99 in1015.6 mb 0.01 in0.3 mm 0.00 in0.0 mm 0.09 in2.3 mm
07:57 AM 50.5°F10.3°C 50.0°F10.0°C 98% 18.0 mph SSE29.0 kmh SSE 26.0 mph41.8 kmh 29.99 in1015.6 mb 0.01 in0.3 mm 0.00 in0.0 mm 0.09 in2.3 mm
08:00 AM 50.5°F10.3°C 50.0°F10.0°C 98% 19.0 mph SSE30.6 kmh SSE 28.0 mph45.1 kmh 29.99 in1015.6 mb 0.01 in0.3 mm 0.00 in0.0 mm 0.09 in2.3 mm
08:03 AM 50.5°F10.3°C 50.0°F10.0°C 98% 20.0 mph SSE32.2 kmh SSE 28.0 mph45.1 kmh 29.99 in1015.6 mb 0.01 in0.3 mm 0.00 in0.0 mm 0.09 in2.3 mm
08:06 AM 50.5°F10.3°C 50.0°F10.0°C 98% 21.0 mph SSE33.8 kmh SSE 29.0 mph46.7 kmh 29.99 in1015.6 mb 0.01 in0.3 mm 0.00 in0.0 mm 0.09 in2.3 mm
08:09 AM 50.5°F10.3°C 50.0°F10.0°C 98% 21.0 mph SSE33.8 kmh SSE 29.0 mph46.7 kmh 29.99 in1015.6 mb 0.01 in0.3 mm 0.00 in0.0 mm 0.09 in2.3 mm
08:12 AM 50.5°F10.3°C 50.0°F10.0°C 98% 21.0 mph SSE33.8 kmh SSE 29.0 mph46.7 kmh 29.99 in1015.6 mb 0.01 in0.3 mm 0.00 in0.0 mm 0.09 in2.3 mm
08:15 AM 50.5°F10.3°C 50.0°F10.0°C 98% 21.0 mph SSE33.8 kmh SSE 29.0 mph46.7 kmh 29.99 in1015.6 mb 0.02 in0.5 mm 0.20 in5.1 mm 0.09 in2.3 mm
08:18 AM 50.5°F10.3°C 50.0°F10.0°C 98% 21.0 mph SSE33.8 kmh SSE 29.0 mph46.7 kmh 29.98 in1015.2 mb 0.02 in0.5 mm 0.00 in0.0 mm 0.09 in2.3 mm
08:21 AM 50.5°F10.3°C 50.0°F10.0°C 98% 21.0 mph SSE33.8 kmh SSE 29.0 mph46.7 kmh 29.98 in1015.2 mb 0.02 in0.5 mm 0.00 in0.0 mm 0.09 in2.3 mm
08:24 AM 50.5°F10.3°C 50.0°F10.0°C 98% 21.0 mph SSE33.8 kmh SSE 29.0 mph46.7 kmh 29.98 in1015.2 mb 0.02 in0.5 mm 0.00 in0.0 mm 0.09 in2.3 mm
08:27 AM 50.5°F10.3°C 50.0°F10.0°C 98% 20.0 mph SSE32.2 kmh SSE 29.0 mph46.7 kmh 29.98 in1015.2 mb 0.02 in0.5 mm 0.00 in0.0 mm 0.09 in2.3 mm
08:30 AM 50.5°F10.3°C 50.0°F10.0°C 98% 21.0 mph SSE33.8 kmh SSE 29.0 mph46.7 kmh 29.99 in1015.6 mb 0.02 in0.5 mm 0.00 in0.0 mm 0.09 in2.3 mm
08:33 AM 50.5°F10.3°C 50.0°F10.0°C 98% 22.0 mph SSE35.4 kmh SSE 30.0 mph48.3 kmh 29.99 in1015.6 mb 0.02 in0.5 mm 0.00 in0.0 mm 0.10 in2.5 mm
08:36 AM 50.4°F10.2°C 49.8°F9.9°C 98% 23.0 mph SSE37.0 kmh SSE 30.0 mph48.3 kmh 29.99 in1015.6 mb 0.02 in0.5 mm 0.00 in0.0 mm 0.10 in2.5 mm
08:39 AM 50.5°F10.3°C 50.0°F10.0°C 98% 23.0 mph SSE37.0 kmh SSE 34.0 mph54.7 kmh 29.99 in1015.6 mb 0.02 in0.5 mm 0.00 in0.0 mm 0.10 in2.5 mm
08:42 AM 50.5°F10.3°C 50.0°F10.0°C 98% 23.0 mph SSE37.0 kmh SSE 34.0 mph54.7 kmh 29.99 in1015.6 mb 0.02 in0.5 mm 0.00 in0.0 mm 0.10 in2.5 mm
08:45 AM 50.5°F10.3°C 50.0°F10.0°C 98% 23.0 mph SSE37.0 kmh SSE 34.0 mph54.7 kmh 29.99 in1015.6 mb 0.02 in0.5 mm 0.00 in0.0 mm 0.10 in2.5 mm
08:48 AM 50.5°F10.3°C 50.0°F10.0°C 98% 23.0 mph SSE37.0 kmh SSE 34.0 mph54.7 kmh 29.99 in1015.6 mb 0.02 in0.5 mm 0.00 in0.0 mm 0.10 in2.5 mm
08:51 AM 50.5°F10.3°C 50.0°F10.0°C 98% 23.0 mph SSE37.0 kmh SSE 31.0 mph49.9 kmh 29.99 in1015.6 mb 0.02 in0.5 mm 0.00 in0.0 mm 0.10 in2.5 mm
08:54 AM 50.5°F10.3°C 50.0°F10.0°C 98% 23.0 mph SSE37.0 kmh SSE 32.0 mph51.5 kmh 29.99 in1015.6 mb 0.02 in0.5 mm 0.00 in0.0 mm 0.10 in2.5 mm
08:57 AM 50.5°F10.3°C 50.0°F10.0°C 98% 23.0 mph SSE37.0 kmh SSE 32.0 mph51.5 kmh 29.99 in1015.6 mb 0.02 in0.5 mm 0.00 in0.0 mm 0.10 in2.5 mm
09:00 AM 50.5°F10.3°C 50.0°F10.0°C 98% 23.0 mph SSE37.0 kmh SSE 32.0 mph51.5 kmh 29.99 in1015.6 mb 0.02 in0.5 mm 0.00 in0.0 mm 0.10 in2.5 mm
09:03 AM 50.7°F10.4°C 50.2°F10.1°C 98% 22.0 mph SSE35.4 kmh SSE 31.0 mph49.9 kmh 29.99 in1015.6 mb 0.02 in0.5 mm 0.00 in0.0 mm 0.10 in2.5 mm
09:06 AM 50.7°F10.4°C 50.2°F10.1°C 98% 22.0 mph SSE35.4 kmh SSE 32.0 mph51.5 kmh 29.99 in1015.6 mb 0.02 in0.5 mm 0.00 in0.0 mm 0.10 in2.5 mm
09:09 AM 50.7°F10.4°C 50.2°F10.1°C 98% 23.0 mph SSE37.0 kmh SSE 32.0 mph51.5 kmh 29.99 in1015.6 mb 0.02 in0.5 mm 0.00 in0.0 mm 0.10 in2.5 mm
09:12 AM 50.7°F10.4°C 50.2°F10.1°C 98% 24.0 mph SSE38.6 kmh SSE 34.0 mph54.7 kmh 29.99 in1015.6 mb 0.02 in0.5 mm 0.00 in0.0 mm 0.10 in2.5 mm
09:15 AM 50.7°F10.4°C 50.2°F10.1°C 98% 24.0 mph SSE38.6 kmh SSE 34.0 mph54.7 kmh 29.99 in1015.6 mb 0.01 in0.3 mm 0.00 in0.0 mm 0.10 in2.5 mm
09:18 AM 50.9°F10.5°C 50.4°F10.2°C 98% 24.0 mph SSE38.6 kmh SSE 34.0 mph54.7 kmh 29.99 in1015.6 mb 0.01 in0.3 mm 0.00 in0.0 mm 0.10 in2.5 mm
09:21 AM 51.1°F10.6°C 50.5°F10.3°C 98% 25.0 mph SSE40.2 kmh SSE 34.0 mph54.7 kmh 29.99 in1015.6 mb 0.01 in0.3 mm 0.00 in0.0 mm 0.10 in2.5 mm
09:24 AM 51.1°F10.6°C 50.5°F10.3°C 98% 24.0 mph SSE38.6 kmh SSE 34.0 mph54.7 kmh 29.99 in1015.6 mb 0.01 in0.3 mm 0.00 in0.0 mm 0.10 in2.5 mm
09:27 AM 51.3°F10.7°C 50.7°F10.4°C 98% 24.0 mph SSE38.6 kmh SSE 34.0 mph54.7 kmh 29.99 in1015.6 mb 0.01 in0.3 mm 0.00 in0.0 mm 0.10 in2.5 mm
09:30 AM 51.3°F10.7°C 50.7°F10.4°C 98% 24.0 mph SSE38.6 kmh SSE 34.0 mph54.7 kmh 29.99 in1015.6 mb 0.01 in0.3 mm 0.00 in0.0 mm 0.10 in2.5 mm
09:33 AM 51.3°F10.7°C 50.7°F10.4°C 98% 24.0 mph SSE38.6 kmh SSE 34.0 mph54.7 kmh 29.99 in1015.6 mb 0.00 in0.0 mm 0.00 in0.0 mm 0.10 in2.5 mm
09:36 AM 51.1°F10.6°C 50.5°F10.3°C 98% 23.0 mph SSE37.0 kmh SSE 34.0 mph54.7 kmh 29.99 in1015.6 mb 0.00 in0.0 mm 0.00 in0.0 mm 0.10 in2.5 mm
09:39 AM 51.1°F10.6°C 50.5°F10.3°C 98% 23.0 mph SSE37.0 kmh SSE 32.0 mph51.5 kmh 29.99 in1015.6 mb 0.00 in0.0 mm 0.00 in0.0 mm 0.10 in2.5 mm
09:42 AM 51.1°F10.6°C 50.5°F10.3°C 98% 22.0 mph SSE35.4 kmh SSE 32.0 mph51.5 kmh 29.99 in1015.6 mb 0.00 in0.0 mm 0.00 in0.0 mm 0.10 in2.5 mm
09:45 AM 51.1°F10.6°C 50.5°F10.3°C 98% 22.0 mph SSE35.4 kmh SSE 34.0 mph54.7 kmh 29.99 in1015.6 mb 0.00 in0.0 mm 0.00 in0.0 mm 0.10 in2.5 mm
09:48 AM 51.3°F10.7°C 50.7°F10.4°C 98% 21.0 mph S33.8 kmh S 34.0 mph54.7 kmh 29.99 in1015.6 mb 0.00 in0.0 mm 0.00 in0.0 mm 0.10 in2.5 mm
09:51 AM 51.3°F10.7°C 50.7°F10.4°C 98% 21.0 mph S33.8 kmh S 34.0 mph54.7 kmh 29.99 in1015.6 mb 0.01 in0.3 mm 0.20 in5.1 mm 0.11 in2.8 mm
09:54 AM 51.3°F10.7°C 50.7°F10.4°C 98% 22.0 mph S35.4 kmh S 36.0 mph57.9 kmh 29.99 in1015.6 mb 0.01 in0.3 mm 0.00 in0.0 mm 0.11 in2.8 mm
09:57 AM 51.4°F10.8°C 50.9°F10.5°C 98% 22.0 mph S35.4 kmh S 36.0 mph57.9 kmh 29.99 in1015.6 mb 0.01 in0.3 mm 0.00 in0.0 mm 0.11 in2.8 mm
10:00 AM 51.4°F10.8°C 50.9°F10.5°C 98% 22.0 mph S35.4 kmh S 36.0 mph57.9 kmh 29.99 in1015.6 mb 0.01 in0.3 mm 0.00 in0.0 mm 0.11 in2.8 mm
10:03 AM 51.4°F10.8°C 50.9°F10.5°C 98% 22.0 mph S35.4 kmh S 36.0 mph57.9 kmh 29.99 in1015.6 mb 0.01 in0.3 mm 0.00 in0.0 mm 0.11 in2.8 mm
10:06 AM 51.6°F10.9°C 51.1°F10.6°C 98% 23.0 mph S37.0 kmh S 34.0 mph54.7 kmh 30.00 in1015.9 mb 0.01 in0.3 mm 0.00 in0.0 mm 0.11 in2.8 mm
10:09 AM 52.0°F11.1°C 51.4°F10.8°C 98% 23.0 mph S37.0 kmh S 32.0 mph51.5 kmh 29.99 in1015.6 mb 0.01 in0.3 mm 0.00 in0.0 mm 0.11 in2.8 mm
10:12 AM 52.2°F11.2°C 51.6°F10.9°C 98% 24.0 mph S38.6 kmh S 40.0 mph64.4 kmh 29.99 in1015.6 mb 0.01 in0.3 mm 0.00 in0.0 mm 0.11 in2.8 mm
10:15 AM 52.2°F11.2°C 51.6°F10.9°C 98% 25.0 mph S40.2 kmh S 40.0 mph64.4 kmh 29.99 in1015.6 mb 0.01 in0.3 mm 0.00 in0.0 mm 0.11 in2.8 mm
10:18 AM 52.3°F11.3°C 51.8°F11.0°C 98% 24.0 mph S38.6 kmh S 40.0 mph64.4 kmh 29.99 in1015.6 mb 0.01 in0.3 mm 0.00 in0.0 mm 0.11 in2.8 mm
10:21 AM 52.5°F11.4°C 52.0°F11.1°C 98% 24.0 mph S38.6 kmh S 39.0 mph62.8 kmh 29.99 in1015.6 mb 0.01 in0.3 mm 0.00 in0.0 mm 0.11 in2.8 mm
10:24 AM 52.9°F11.6°C 52.3°F11.3°C 98% 23.0 mph S37.0 kmh S 39.0 mph62.8 kmh 29.99 in1015.6 mb 0.01 in0.3 mm 0.00 in0.0 mm 0.11 in2.8 mm
10:27 AM 52.9°F11.6°C 52.3°F11.3°C 98% 24.0 mph S38.6 kmh S 40.0 mph64.4 kmh 29.99 in1015.6 mb 0.01 in0.3 mm 0.00 in0.0 mm 0.11 in2.8 mm
10:30 AM 52.9°F11.6°C 52.3°F11.3°C 98% 25.0 mph S40.2 kmh S 40.0 mph64.4 kmh 29.99 in1015.6 mb 0.01 in0.3 mm 0.00 in0.0 mm 0.11 in2.8 mm
10:33 AM 52.7°F11.5°C 52.2°F11.2°C 98% 24.0 mph S38.6 kmh S 40.0 mph64.4 kmh 29.99 in1015.6 mb 0.01 in0.3 mm 0.00 in0.0 mm 0.11 in2.8 mm
10:36 AM 52.7°F11.5°C 52.2°F11.2°C 98% 24.0 mph S38.6 kmh S 40.0 mph64.4 kmh 29.99 in1015.6 mb 0.01 in0.3 mm 0.00 in0.0 mm 0.11 in2.8 mm
10:39 AM 52.7°F11.5°C 52.2°F11.2°C 98% 23.0 mph S37.0 kmh S 36.0 mph57.9 kmh 29.99 in1015.6 mb 0.01 in0.3 mm 0.00 in0.0 mm 0.11 in2.8 mm
10:42 AM 52.5°F11.4°C 52.0°F11.1°C 98% 23.0 mph SSE37.0 kmh SSE 34.0 mph54.7 kmh 29.99 in1015.6 mb 0.01 in0.3 mm 0.00 in0.0 mm 0.11 in2.8 mm
10:45 AM 52.7°F11.5°C 52.2°F11.2°C 98% 24.0 mph SSE38.6 kmh SSE 34.0 mph54.7 kmh 30.00 in1015.9 mb 0.01 in0.3 mm 0.00 in0.0 mm 0.11 in2.8 mm
10:48 AM 52.5°F11.4°C 52.0°F11.1°C 98% 24.0 mph SSE38.6 kmh SSE 33.0 mph53.1 kmh 29.99 in1015.6 mb 0.01 in0.3 mm 0.00 in0.0 mm 0.11 in2.8 mm
10:51 AM 52.5°F11.4°C 51.8°F11.0°C 97% 24.0 mph SSE38.6 kmh SSE 34.0 mph54.7 kmh 30.00 in1015.9 mb 0.00 in0.0 mm 0.00 in0.0 mm 0.11 in2.8 mm
10:54 AM 52.5°F11.4°C 51.6°F10.9°C 97% 24.0 mph SSE38.6 kmh SSE 35.0 mph56.3 kmh 30.00 in1015.9 mb 0.00 in0.0 mm 0.00 in0.0 mm 0.11 in2.8 mm
10:57 AM 52.3°F11.3°C 51.4°F10.8°C 97% 25.0 mph SSE40.2 kmh SSE 36.0 mph57.9 kmh 30.00 in1015.9 mb 0.00 in0.0 mm 0.00 in0.0 mm 0.11 in2.8 mm
11:00 AM 52.2°F11.2°C 51.4°F10.8°C 97% 25.0 mph SSE40.2 kmh SSE 36.0 mph57.9 kmh 30.00 in1015.9 mb 0.00 in0.0 mm 0.00 in0.0 mm 0.11 in2.8 mm
11:03 AM 52.3°F11.3°C 51.4°F10.8°C 97% 26.0 mph SSE41.8 kmh SSE 36.0 mph57.9 kmh 30.00 in1015.9 mb 0.00 in0.0 mm 0.00 in0.0 mm 0.11 in2.8 mm
11:06 AM 52.3°F11.3°C 51.4°F10.8°C 97% 26.0 mph SSE41.8 kmh SSE 36.0 mph57.9 kmh 30.00 in1015.9 mb 0.00 in0.0 mm 0.00 in0.0 mm 0.11 in2.8 mm
11:09 AM 52.5°F11.4°C 51.6°F10.9°C 97% 26.0 mph SSE41.8 kmh SSE 36.0 mph57.9 kmh 30.00 in1015.9 mb 0.00 in0.0 mm 0.00 in0.0 mm 0.11 in2.8 mm
11:12 AM 52.7°F11.5°C 52.2°F11.2°C 98% 26.0 mph SSE41.8 kmh SSE 35.0 mph56.3 kmh 30.00 in1015.9 mb 0.00 in0.0 mm 0.00 in0.0 mm 0.11 in2.8 mm
11:15 AM 52.9°F11.6°C 52.0°F11.1°C 97% 25.0 mph SSE40.2 kmh SSE 35.0 mph56.3 kmh 30.00 in1015.9 mb 0.00 in0.0 mm 0.00 in0.0 mm 0.11 in2.8 mm
11:18 AM 52.9°F11.6°C 52.0°F11.1°C 97% 25.0 mph SSE40.2 kmh SSE 37.0 mph59.5 kmh 30.00 in1015.9 mb 0.00 in0.0 mm 0.00 in0.0 mm 0.11 in2.8 mm
11:21 AM 52.7°F11.5°C 51.8°F11.0°C 97% 26.0 mph SSE41.8 kmh SSE 37.0 mph59.5 kmh 30.00 in1015.9 mb 0.00 in0.0 mm 0.00 in0.0 mm 0.11 in2.8 mm
11:24 AM 52.7°F11.5°C 51.8°F11.0°C 97% 26.0 mph SSE41.8 kmh SSE 37.0 mph59.5 kmh 30.00 in1015.9 mb 0.00 in0.0 mm 0.00 in0.0 mm 0.11 in2.8 mm
11:27 AM 52.5°F11.4°C 51.8°F11.0°C 97% 26.0 mph SSE41.8 kmh SSE 35.0 mph56.3 kmh 30.00 in1015.9 mb 0.00 in0.0 mm 0.00 in0.0 mm 0.11 in2.8 mm
11:30 AM 52.9°F11.6°C 52.0°F11.1°C 97% 25.0 mph SSE40.2 kmh SSE 35.0 mph56.3 kmh 30.00 in1015.9 mb 0.00 in0.0 mm 0.00 in0.0 mm 0.11 in2.8 mm
11:33 AM 53.1°F11.7°C 52.3°F11.3°C 97% 25.0 mph SSE40.2 kmh SSE 35.0 mph56.3 kmh 29.99 in1015.6 mb 0.00 in0.0 mm 0.00 in0.0 mm 0.11 in2.8 mm
11:36 AM 53.2°F11.8°C 52.3°F11.3°C 97% 25.0 mph SSE40.2 kmh SSE 35.0 mph56.3 kmh 29.99 in1015.6 mb 0.00 in0.0 mm 0.00 in0.0 mm 0.11 in2.8 mm
11:39 AM 53.2°F11.8°C 52.3°F11.3°C 97% 25.0 mph SSE40.2 kmh SSE 35.0 mph56.3 kmh 29.99 in1015.6 mb 0.00 in0.0 mm 0.00 in0.0 mm 0.11 in2.8 mm
11:42 AM 53.2°F11.8°C 52.2°F11.2°C 96% 25.0 mph SSE40.2 kmh SSE 36.0 mph57.9 kmh 30.00 in1015.9 mb 0.00 in0.0 mm 0.00 in0.0 mm 0.11 in2.8 mm
11:45 AM 53.1°F11.7°C 52.0°F11.1°C 96% 25.0 mph SSE40.2 kmh SSE 36.0 mph57.9 kmh 29.99 in1015.6 mb 0.00 in0.0 mm 0.00 in0.0 mm 0.11 in2.8 mm
11:48 AM 53.1°F11.7°C 52.0°F11.1°C 96% 25.0 mph SSE40.2 kmh SSE 36.0 mph57.9 kmh 30.00 in1015.9 mb 0.00 in0.0 mm 0.00 in0.0 mm 0.11 in2.8 mm
11:51 AM 53.1°F11.7°C 52.0°F11.1°C 96% 26.0 mph SSE41.8 kmh SSE 41.0 mph66.0 kmh 29.99 in1015.6 mb 0.00 in0.0 mm 0.00 in0.0 mm 0.11 in2.8 mm
11:54 AM 53.1°F11.7°C 52.0°F11.1°C 96% 26.0 mph SSE41.8 kmh SSE 41.0 mph66.0 kmh 29.99 in1015.6 mb 0.00 in0.0 mm 0.00 in0.0 mm 0.11 in2.8 mm
11:57 AM 53.1°F11.7°C 52.0°F11.1°C 96% 27.0 mph SSE43.5 kmh SSE 41.0 mph66.0 kmh 29.99 in1015.6 mb 0.00 in0.0 mm 0.00 in0.0 mm 0.11 in2.8 mm
12:00 PM 53.1°F11.7°C 52.0°F11.1°C 96% 27.0 mph SSE43.5 kmh SSE 37.0 mph59.5 kmh 29.99 in1015.6 mb 0.00 in0.0 mm 0.00 in0.0 mm 0.11 in2.8 mm
12:03 PM 53.2°F11.8°C 52.2°F11.2°C 96% 27.0 mph SSE43.5 kmh SSE 39.0 mph62.8 kmh 29.99 in1015.6 mb 0.00 in0.0 mm 0.00 in0.0 mm 0.11 in2.8 mm
12:06 PM 53.2°F11.8°C 52.2°F11.2°C 96% 27.0 mph SSE43.5 kmh SSE 44.0 mph70.8 kmh 29.99 in1015.6 mb 0.00 in0.0 mm 0.00 in0.0 mm 0.11 in2.8 mm
12:09 PM 53.4°F11.9°C 52.3°F11.3°C 96% 28.0 mph SSE45.1 kmh SSE 44.0 mph70.8 kmh 29.99 in1015.6 mb 0.00 in0.0 mm 0.00 in0.0 mm 0.11 in2.8 mm
12:12 PM 53.4°F11.9°C 52.3°F11.3°C 96% 28.0 mph SSE45.1 kmh SSE 44.0 mph70.8 kmh 29.99 in1015.6 mb 0.00 in0.0 mm 0.00 in0.0 mm 0.11 in2.8 mm
12:15 PM 53.2°F11.8°C 52.0°F11.1°C 95% 29.0 mph SSE46.7 kmh SSE 44.0 mph70.8 kmh 29.99 in1015.6 mb 0.00 in0.0 mm 0.00 in0.0 mm 0.11 in2.8 mm
12:18 PM 53.2°F11.8°C 51.8°F11.0°C 95% 29.0 mph SSE46.7 kmh SSE 42.0 mph67.6 kmh 29.99 in1015.6 mb 0.00 in0.0 mm 0.00 in0.0 mm 0.11 in2.8 mm
12:21 PM 53.2°F11.8°C 51.8°F11.0°C 95% 29.0 mph SSE46.7 kmh SSE 42.0 mph67.6 kmh 29.99 in1015.6 mb 0.00 in0.0 mm 0.00 in0.0 mm 0.11 in2.8 mm
12:24 PM 53.4°F11.9°C 52.0°F11.1°C 95% 28.0 mph SSE45.1 kmh SSE 42.0 mph67.6 kmh 30.00 in1015.9 mb 0.00 in0.0 mm 0.00 in0.0 mm 0.11 in2.8 mm
12:27 PM 53.4°F11.9°C 52.2°F11.2°C 95% 28.0 mph SSE45.1 kmh SSE 42.0 mph67.6 kmh 29.99 in1015.6 mb 0.00 in0.0 mm 0.00 in0.0 mm 0.11 in2.8 mm
12:30 PM 53.4°F11.9°C 52.2°F11.2°C 95% 27.0 mph SSE43.5 kmh SSE 42.0 mph67.6 kmh 29.99 in1015.6 mb 0.00 in0.0 mm 0.00 in0.0 mm 0.11 in2.8 mm
12:33 PM 53.2°F11.8°C 51.6°F10.9°C 94% 27.0 mph SSE43.5 kmh SSE 42.0 mph67.6 kmh 29.99 in1015.6 mb 0.00 in0.0 mm 0.00 in0.0 mm 0.11 in2.8 mm
12:36 PM 53.2°F11.8°C 51.6°F10.9°C 94% 28.0 mph SSE45.1 kmh SSE 42.0 mph67.6 kmh 29.99 in1015.6 mb 0.00 in0.0 mm 0.00 in0.0 mm 0.11 in2.8 mm
12:39 PM 53.4°F11.9°C 52.0°F11.1°C 95% 27.0 mph SSE43.5 kmh SSE 42.0 mph67.6 kmh 29.99 in1015.6 mb 0.00 in0.0 mm 0.00 in0.0 mm 0.11 in2.8 mm
12:42 PM 53.4°F11.9°C 52.2°F11.2°C 95% 27.0 mph SSE43.5 kmh SSE 42.0 mph67.6 kmh 30.00 in1015.9 mb 0.00 in0.0 mm 0.00 in0.0 mm 0.11 in2.8 mm
12:45 PM 53.4°F11.9°C 51.8°F11.0°C 94% 26.0 mph SSE41.8 kmh SSE 37.0 mph59.5 kmh 30.00 in1015.9 mb 0.00 in0.0 mm 0.00 in0.0 mm 0.11 in2.8 mm
12:48 PM 53.8°F12.1°C 52.3°F11.3°C 95% 26.0 mph SSE41.8 kmh SSE 39.0 mph62.8 kmh 29.99 in1015.6 mb 0.00 in0.0 mm 0.00 in0.0 mm 0.11 in2.8 mm
12:51 PM 54.0°F12.2°C 52.5°F11.4°C 95% 26.0 mph SSE41.8 kmh SSE 39.0 mph62.8 kmh 29.99 in1015.6 mb 0.00 in0.0 mm 0.00 in0.0 mm 0.11 in2.8 mm
12:54 PM 54.1°F12.3°C 52.3°F11.3°C 94% 28.0 mph SSE45.1 kmh SSE 40.0 mph64.4 kmh 29.99 in1015.6 mb 0.00 in0.0 mm 0.00 in0.0 mm 0.11 in2.8 mm
12:57 PM 54.1°F12.3°C 52.5°F11.4°C 94% 28.0 mph SSE45.1 kmh SSE 42.0 mph67.6 kmh 29.99 in1015.6 mb 0.00 in0.0 mm 0.00 in0.0 mm 0.11 in2.8 mm
01:00 PM 54.1°F12.3°C 52.5°F11.4°C 94% 28.0 mph SSE45.1 kmh SSE 42.0 mph67.6 kmh 29.99 in1015.6 mb 0.00 in0.0 mm 0.00 in0.0 mm 0.11 in2.8 mm
01:03 PM 54.1°F12.3°C 52.2°F11.2°C 93% 27.0 mph SSE43.5 kmh SSE 42.0 mph67.6 kmh 29.99 in1015.6 mb 0.00 in0.0 mm 0.00 in0.0 mm 0.11 in2.8 mm
01:06 PM 54.0°F12.2°C 52.0°F11.1°C 93% 26.0 mph SSE41.8 kmh SSE 42.0 mph67.6 kmh 30.00 in1015.9 mb 0.00 in0.0 mm 0.00 in0.0 mm 0.11 in2.8 mm
01:09 PM 53.8°F12.1°C 51.8°F11.0°C 93% 26.0 mph SSE41.8 kmh SSE 40.0 mph64.4 kmh 29.99 in1015.6 mb 0.00 in0.0 mm 0.00 in0.0 mm 0.11 in2.8 mm
01:12 PM 53.4°F11.9°C 51.4°F10.8°C 93% 27.0 mph SSE43.5 kmh SSE 40.0 mph64.4 kmh 29.99 in1015.6 mb 0.00 in0.0 mm 0.00 in0.0 mm 0.11 in2.8 mm
01:15 PM 53.2°F11.8°C 51.3°F10.7°C 93% 28.0 mph SSE45.1 kmh SSE 40.0 mph64.4 kmh 29.99 in1015.6 mb 0.00 in0.0 mm 0.00 in0.0 mm 0.11 in2.8 mm
01:18 PM 53.2°F11.8°C 51.3°F10.7°C 93% 30.0 mph SSE48.3 kmh SSE 40.0 mph64.4 kmh 29.98 in1015.2 mb 0.00 in0.0 mm 0.00 in0.0 mm 0.11 in2.8 mm
01:21 PM 53.2°F11.8°C 51.3°F10.7°C 93% 29.0 mph SSE46.7 kmh SSE 41.0 mph66.0 kmh 29.98 in1015.2 mb 0.00 in0.0 mm 0.00 in0.0 mm 0.11 in2.8 mm
01:24 PM 53.2°F11.8°C 51.3°F10.7°C 93% 29.0 mph SSE46.7 kmh SSE 41.0 mph66.0 kmh 29.98 in1015.2 mb 0.00 in0.0 mm 0.00 in0.0 mm 0.11 in2.8 mm
01:27 PM 53.2°F11.8°C 51.3°F10.7°C 93% 28.0 mph SSE45.1 kmh SSE 43.0 mph69.2 kmh 29.98 in1015.2 mb 0.00 in0.0 mm 0.00 in0.0 mm 0.11 in2.8 mm
01:30 PM 53.1°F11.7°C 51.1°F10.6°C 93% 29.0 mph SSE46.7 kmh SSE 45.0 mph72.4 kmh 29.98 in1015.2 mb 0.00 in0.0 mm 0.00 in0.0 mm 0.11 in2.8 mm
01:33 PM 53.1°F11.7°C 51.1°F10.6°C 93% 29.0 mph SSE46.7 kmh SSE 45.0 mph72.4 kmh 29.98 in1015.2 mb 0.00 in0.0 mm 0.00 in0.0 mm 0.11 in2.8 mm
01:36 PM 53.1°F11.7°C 51.1°F10.6°C 93% 30.0 mph SSE48.3 kmh SSE 49.0 mph78.9 kmh 29.98 in1015.2 mb 0.00 in0.0 mm 0.00 in0.0 mm 0.11 in2.8 mm
01:39 PM 53.1°F11.7°C 51.1°F10.6°C 93% 30.0 mph SSE48.3 kmh SSE 49.0 mph78.9 kmh 29.99 in1015.6 mb 0.00 in0.0 mm 0.00 in0.0 mm 0.11 in2.8 mm
01:42 PM 52.9°F11.6°C 50.9°F10.5°C 93% 31.0 mph SSE49.9 kmh SSE 49.0 mph78.9 kmh 29.99 in1015.6 mb 0.00 in0.0 mm 0.00 in0.0 mm 0.11 in2.8 mm
01:45 PM 52.9°F11.6°C 50.9°F10.5°C 93% 30.0 mph SSE48.3 kmh SSE 49.0 mph78.9 kmh 29.99 in1015.6 mb 0.00 in0.0 mm 0.00 in0.0 mm 0.11 in2.8 mm
01:48 PM 52.7°F11.5°C 50.7°F10.4°C 93% 28.0 mph SSE45.1 kmh SSE 42.0 mph67.6 kmh 29.99 in1015.6 mb 0.00 in0.0 mm 0.00 in0.0 mm 0.11 in2.8 mm
01:51 PM 52.9°F11.6°C 50.9°F10.5°C 93% 28.0 mph SSE45.1 kmh SSE 42.0 mph67.6 kmh 29.99 in1015.6 mb 0.00 in0.0 mm 0.00 in0.0 mm 0.11 in2.8 mm
01:54 PM 52.7°F11.5°C 50.7°F10.4°C 93% 27.0 mph SSE43.5 kmh SSE 39.0 mph62.8 kmh 29.98 in1015.2 mb 0.00 in0.0 mm 0.00 in0.0 mm 0.11 in2.8 mm
01:57 PM 52.9°F11.6°C 50.9°F10.5°C 93% 28.0 mph SSE45.1 kmh SSE 41.0 mph66.0 kmh 29.98 in1015.2 mb 0.00 in0.0 mm 0.00 in0.0 mm 0.11 in2.8 mm
02:00 PM 52.9°F11.6°C 50.9°F10.5°C 93% 28.0 mph SSE45.1 kmh SSE 41.0 mph66.0 kmh 29.98 in1015.2 mb 0.00 in0.0 mm 0.00 in0.0 mm 0.11 in2.8 mm
02:03 PM 52.9°F11.6°C 50.9°F10.5°C 93% 27.0 mph SSE43.5 kmh SSE 41.0 mph66.0 kmh 29.98 in1015.2 mb 0.00 in0.0 mm 0.00 in0.0 mm 0.11 in2.8 mm
02:06 PM 52.9°F11.6°C 50.9°F10.5°C 93% 28.0 mph SSE45.1 kmh SSE 42.0 mph67.6 kmh 29.99 in1015.6 mb 0.00 in0.0 mm 0.00 in0.0 mm 0.11 in2.8 mm
02:09 PM 52.9°F11.6°C 50.5°F10.3°C 92% 28.0 mph SSE45.1 kmh SSE 42.0 mph67.6 kmh 29.99 in1015.6 mb 0.00 in0.0 mm 0.00 in0.0 mm 0.11 in2.8 mm
02:12 PM 52.7°F11.5°C 50.4°F10.2°C 92% 28.0 mph SSE45.1 kmh SSE 42.0 mph67.6 kmh 29.99 in1015.6 mb 0.00 in0.0 mm 0.00 in0.0 mm 0.11 in2.8 mm
02:15 PM 52.5°F11.4°C 50.4°F10.2°C 92% 27.0 mph SSE43.5 kmh SSE 39.0 mph62.8 kmh 29.99 in1015.6 mb 0.00 in0.0 mm 0.00 in0.0 mm 0.11 in2.8 mm
02:18 PM 52.3°F11.3°C 50.4°F10.2°C 93% 27.0 mph SSE43.5 kmh SSE 39.0 mph62.8 kmh 29.99 in1015.6 mb 0.00 in0.0 mm 0.00 in0.0 mm 0.11 in2.8 mm
02:21 PM 52.3°F11.3°C 50.4°F10.2°C 93% 26.0 mph SSE41.8 kmh SSE 36.0 mph57.9 kmh 29.99 in1015.6 mb 0.00 in0.0 mm 0.00 in0.0 mm 0.11 in2.8 mm
02:24 PM 52.3°F11.3°C 50.4°F10.2°C 93% 26.0 mph SSE41.8 kmh SSE 39.0 mph62.8 kmh 29.99 in1015.6 mb 0.00 in0.0 mm 0.00 in0.0 mm 0.11 in2.8 mm
02:27 PM 52.3°F11.3°C 50.4°F10.2°C 93% 27.0 mph SSE43.5 kmh SSE 39.0 mph62.8 kmh 29.99 in1015.6 mb 0.00 in0.0 mm 0.00 in0.0 mm 0.11 in2.8 mm
02:30 PM 52.3°F11.3°C 50.4°F10.2°C 93% 26.0 mph SSE41.8 kmh SSE 39.0 mph62.8 kmh 29.99 in1015.6 mb 0.00 in0.0 mm 0.00 in0.0 mm 0.11 in2.8 mm
02:33 PM 52.3°F11.3°C 50.4°F10.2°C 93% 26.0 mph SSE41.8 kmh SSE 38.0 mph61.2 kmh 29.99 in1015.6 mb 0.00 in0.0 mm 0.00 in0.0 mm 0.11 in2.8 mm
02:36 PM 52.2°F11.2°C 50.2°F10.1°C 93% 26.0 mph SSE41.8 kmh SSE 36.0 mph57.9 kmh 29.99 in1015.6 mb 0.00 in0.0 mm 0.00 in0.0 mm 0.11 in2.8 mm
02:39 PM 52.2°F11.2°C 50.2°F10.1°C 93% 26.0 mph SSE41.8 kmh SSE 36.0 mph57.9 kmh 29.99 in1015.6 mb 0.00 in0.0 mm 0.00 in0.0 mm 0.11 in2.8 mm
02:42 PM 52.2°F11.2°C 50.2°F10.1°C 93% 26.0 mph SSE41.8 kmh SSE 40.0 mph64.4 kmh 29.99 in1015.6 mb 0.00 in0.0 mm 0.00 in0.0 mm 0.11 in2.8 mm
02:45 PM 52.2°F11.2°C 50.2°F10.1°C 93% 27.0 mph SSE43.5 kmh SSE 40.0 mph64.4 kmh 29.98 in1015.2 mb 0.00 in0.0 mm 0.00 in0.0 mm 0.11 in2.8 mm
02:48 PM 52.2°F11.2°C 50.2°F10.1°C 93% 27.0 mph SSE43.5 kmh SSE 40.0 mph64.4 kmh 29.98 in1015.2 mb 0.00 in0.0 mm 0.00 in0.0 mm 0.11 in2.8 mm
02:51 PM 52.2°F11.2°C 50.2°F10.1°C 93% 27.0 mph SSE43.5 kmh SSE 36.0 mph57.9 kmh 29.98 in1015.2 mb 0.00 in0.0 mm 0.00 in0.0 mm 0.11 in2.8 mm
02:54 PM 52.2°F11.2°C 50.2°F10.1°C 93% 27.0 mph SSE43.5 kmh SSE 36.0 mph57.9 kmh 29.98 in1015.2 mb 0.00 in0.0 mm 0.00 in0.0 mm 0.11 in2.8 mm
02:57 PM 52.2°F11.2°C 50.2°F10.1°C 93% 27.0 mph SSE43.5 kmh SSE 36.0 mph57.9 kmh 29.98 in1015.2 mb 0.00 in0.0 mm 0.00 in0.0 mm 0.11 in2.8 mm
03:00 PM 52.2°F11.2°C 50.2°F10.1°C 93% 27.0 mph SSE43.5 kmh SSE 41.0 mph66.0 kmh 29.98 in1015.2 mb 0.00 in0.0 mm 0.00 in0.0 mm 0.11 in2.8 mm
03:03 PM 52.2°F11.2°C 50.2°F10.1°C 93% 27.0 mph SSE43.5 kmh SSE 41.0 mph66.0 kmh 29.98 in1015.2 mb 0.00 in0.0 mm 0.00 in0.0 mm 0.11 in2.8 mm
03:06 PM 52.2°F11.2°C 50.2°F10.1°C 93% 27.0 mph SSE43.5 kmh SSE 41.0 mph66.0 kmh 29.98 in1015.2 mb 0.00 in0.0 mm 0.00 in0.0 mm 0.11 in2.8 mm
03:09 PM 52.3°F11.3°C 50.4°F10.2°C 93% 26.0 mph SSE41.8 kmh SSE 41.0 mph66.0 kmh 29.98 in1015.2 mb 0.00 in0.0 mm 0.00 in0.0 mm 0.11 in2.8 mm
03:12 PM 52.3°F11.3°C 50.4°F10.2°C 93% 25.0 mph SSE40.2 kmh SSE 38.0 mph61.2 kmh 29.97 in1014.9 mb 0.00 in0.0 mm 0.00 in0.0 mm 0.11 in2.8 mm
03:15 PM 52.3°F11.3°C 50.4°F10.2°C 93% 26.0 mph SSE41.8 kmh SSE 39.0 mph62.8 kmh 29.97 in1014.9 mb 0.00 in0.0 mm 0.00 in0.0 mm 0.11 in2.8 mm
03:18 PM 52.5°F11.4°C 50.5°F10.3°C 93% 26.0 mph SSE41.8 kmh SSE 39.0 mph62.8 kmh 29.97 in1014.9 mb 0.00 in0.0 mm 0.00 in0.0 mm 0.11 in2.8 mm
03:21 PM 52.5°F11.4°C 50.5°F10.3°C 93% 27.0 mph SSE43.5 kmh SSE 39.0 mph62.8 kmh 29.97 in1014.9 mb 0.00 in0.0 mm 0.00 in0.0 mm 0.11 in2.8 mm
03:24 PM 52.7°F11.5°C 50.7°F10.4°C 93% 27.0 mph SSE43.5 kmh SSE 39.0 mph62.8 kmh 29.97 in1014.9 mb 0.00 in0.0 mm 0.00 in0.0 mm 0.11 in2.8 mm
03:27 PM 52.9°F11.6°C 50.9°F10.5°C 93% 27.0 mph SSE43.5 kmh SSE 42.0 mph67.6 kmh 29.97 in1014.9 mb 0.00 in0.0 mm 0.00 in0.0 mm 0.11 in2.8 mm
03:30 PM 52.9°F11.6°C 50.9°F10.5°C 93% 28.0 mph SSE45.1 kmh SSE 42.0 mph67.6 kmh 29.97 in1014.9 mb 0.00 in0.0 mm 0.00 in0.0 mm 0.11 in2.8 mm
03:33 PM 52.9°F11.6°C 50.9°F10.5°C 93% 28.0 mph SSE45.1 kmh SSE 43.0 mph69.2 kmh 29.97 in1014.9 mb 0.00 in0.0 mm 0.00 in0.0 mm 0.11 in2.8 mm
03:36 PM 52.7°F11.5°C 50.7°F10.4°C 93% 28.0 mph SSE45.1 kmh SSE 43.0 mph69.2 kmh 29.97 in1014.9 mb 0.00 in0.0 mm 0.00 in0.0 mm 0.11 in2.8 mm
03:39 PM 52.5°F11.4°C 50.7°F10.4°C 93% 28.0 mph SSE45.1 kmh SSE 43.0 mph69.2 kmh 29.97 in1014.9 mb 0.00 in0.0 mm 0.00 in0.0 mm 0.11 in2.8 mm
03:42 PM 52.3°F11.3°C 50.4°F10.2°C 93% 28.0 mph SSE45.1 kmh SSE 37.0 mph59.5 kmh 29.97 in1014.9 mb 0.00 in0.0 mm 0.00 in0.0 mm 0.11 in2.8 mm
03:45 PM 52.2°F11.2°C 50.2°F10.1°C 93% 28.0 mph SSE45.1 kmh SSE 39.0 mph62.8 kmh 29.97 in1014.9 mb 0.00 in0.0 mm 0.00 in0.0 mm 0.11 in2.8 mm
03:48 PM 52.2°F11.2°C 50.2°F10.1°C 93% 27.0 mph SSE43.5 kmh SSE 39.0 mph62.8 kmh 29.98 in1015.2 mb 0.00 in0.0 mm 0.00 in0.0 mm 0.11 in2.8 mm
03:51 PM 52.0°F11.1°C 50.0°F10.0°C 93% 27.0 mph SSE43.5 kmh SSE 39.0 mph62.8 kmh 29.97 in1014.9 mb 0.00 in0.0 mm 0.00 in0.0 mm 0.11 in2.8 mm
03:54 PM 52.0°F11.1°C 50.0°F10.0°C 93% 27.0 mph SSE43.5 kmh SSE 38.0 mph61.2 kmh 29.98 in1015.2 mb 0.00 in0.0 mm 0.00 in0.0 mm 0.11 in2.8 mm
03:57 PM 51.8°F11.0°C 49.8°F9.9°C 93% 26.0 mph SSE41.8 kmh SSE 38.0 mph61.2 kmh 29.98 in1015.2 mb 0.00 in0.0 mm 0.00 in0.0 mm 0.11 in2.8 mm
04:00 PM 51.6°F10.9°C 49.8°F9.9°C 93% 25.0 mph SSE40.2 kmh SSE 38.0 mph61.2 kmh 29.98 in1015.2 mb 0.00 in0.0 mm 0.00 in0.0 mm 0.11 in2.8 mm
04:03 PM 51.6°F10.9°C 50.0°F10.0°C 94% 24.0 mph SSE38.6 kmh SSE 34.0 mph54.7 kmh 29.98 in1015.2 mb 0.00 in0.0 mm 0.00 in0.0 mm 0.11 in2.8 mm
04:06 PM 51.6°F10.9°C 50.0°F10.0°C 94% 24.0 mph SSE38.6 kmh SSE 32.0 mph51.5 kmh 29.98 in1015.2 mb 0.00 in0.0 mm 0.00 in0.0 mm 0.11 in2.8 mm
04:09 PM 51.6°F10.9°C 50.0°F10.0°C 94% 23.0 mph SSE37.0 kmh SSE 33.0 mph53.1 kmh 29.97 in1014.9 mb 0.00 in0.0 mm 0.00 in0.0 mm 0.11 in2.8 mm
04:12 PM 51.4°F10.8°C 49.8°F9.9°C 94% 24.0 mph SSE38.6 kmh SSE 35.0 mph56.3 kmh 29.98 in1015.2 mb 0.00 in0.0 mm 0.00 in0.0 mm 0.11 in2.8 mm
04:15 PM 51.4°F10.8°C 49.8°F9.9°C 94% 24.0 mph SSE38.6 kmh SSE 35.0 mph56.3 kmh 29.98 in1015.2 mb 0.00 in0.0 mm 0.00 in0.0 mm 0.11 in2.8 mm
04:18 PM 51.4°F10.8°C 49.8°F9.9°C 94% 24.0 mph SSE38.6 kmh SSE 35.0 mph56.3 kmh 29.97 in1014.9 mb 0.00 in0.0 mm 0.00 in0.0 mm 0.11 in2.8 mm
04:21 PM 51.4°F10.8°C 49.8°F9.9°C 94% 24.0 mph SSE38.6 kmh SSE 35.0 mph56.3 kmh 29.97 in1014.9 mb 0.00 in0.0 mm 0.00 in0.0 mm 0.11 in2.8 mm
04:24 PM 51.4°F10.8°C 49.8°F9.9°C 94% 24.0 mph SSE38.6 kmh SSE 35.0 mph56.3 kmh 29.97 in1014.9 mb 0.00 in0.0 mm 0.00 in0.0 mm 0.11 in2.8 mm
04:27 PM 51.4°F10.8°C 49.8°F9.9°C 94% 24.0 mph SSE38.6 kmh SSE 35.0 mph56.3 kmh 29.97 in1014.9 mb 0.00 in0.0 mm 0.00 in0.0 mm 0.11 in2.8 mm
04:30 PM 51.3°F10.7°C 49.6°F9.8°C 94% 24.0 mph SSE38.6 kmh SSE 35.0 mph56.3 kmh 29.97 in1014.9 mb 0.00 in0.0 mm 0.00 in0.0 mm 0.11 in2.8 mm
04:33 PM 51.3°F10.7°C 49.6°F9.8°C 94% 23.0 mph SSE37.0 kmh SSE 33.0 mph53.1 kmh 29.97 in1014.9 mb 0.00 in0.0 mm 0.00 in0.0 mm 0.11 in2.8 mm
04:36 PM 51.3°F10.7°C 49.6°F9.8°C 94% 23.0 mph SSE37.0 kmh SSE 33.0 mph53.1 kmh 29.97 in1014.9 mb 0.00 in0.0 mm 0.00 in0.0 mm 0.11 in2.8 mm
04:39 PM 51.3°F10.7°C 49.6°F9.8°C 94% 24.0 mph SSE38.6 kmh SSE 33.0 mph53.1 kmh 29.97 in1014.9 mb 0.00 in0.0 mm 0.00 in0.0 mm 0.11 in2.8 mm
04:42 PM 51.4°F10.8°C 49.8°F9.9°C 94% 24.0 mph SSE38.6 kmh SSE 33.0 mph53.1 kmh 29.97 in1014.9 mb 0.00 in0.0 mm 0.00 in0.0 mm 0.11 in2.8 mm
04:45 PM 51.4°F10.8°C 49.8°F9.9°C 94% 24.0 mph SSE38.6 kmh SSE 34.0 mph54.7 kmh 29.97 in1014.9 mb 0.00 in0.0 mm 0.00 in0.0 mm 0.11 in2.8 mm
04:48 PM 51.4°F10.8°C 49.8°F9.9°C 94% 25.0 mph SSE40.2 kmh SSE 34.0 mph54.7 kmh 29.97 in1014.9 mb 0.00 in0.0 mm 0.00 in0.0 mm 0.11 in2.8 mm
04:51 PM 51.4°F10.8°C 49.8°F9.9°C 94% 25.0 mph SSE40.2 kmh SSE 34.0 mph54.7 kmh 29.97 in1014.9 mb 0.00 in0.0 mm 0.00 in0.0 mm 0.11 in2.8 mm
04:54 PM 51.4°F10.8°C 49.8°F9.9°C 94% 25.0 mph SSE40.2 kmh SSE 34.0 mph54.7 kmh 29.97 in1014.9 mb 0.00 in0.0 mm 0.00 in0.0 mm 0.11 in2.8 mm
04:57 PM 51.4°F10.8°C 49.8°F9.9°C 94% 25.0 mph SSE40.2 kmh SSE 35.0 mph56.3 kmh 29.97 in1014.9 mb 0.00 in0.0 mm 0.00 in0.0 mm 0.11 in2.8 mm
05:00 PM 51.4°F10.8°C 49.8°F9.9°C 94% 25.0 mph SSE40.2 kmh SSE 35.0 mph56.3 kmh 29.97 in1014.9 mb 0.00 in0.0 mm 0.00 in0.0 mm 0.11 in2.8 mm
05:03 PM 51.4°F10.8°C 50.0°F10.0°C 95% 24.0 mph SSE38.6 kmh SSE 35.0 mph56.3 kmh 29.97 in1014.9 mb 0.00 in0.0 mm 0.00 in0.0 mm 0.11 in2.8 mm
05:06 PM 51.4°F10.8°C 50.2°F10.1°C 95% 24.0 mph SSE38.6 kmh SSE 34.0 mph54.7 kmh 29.97 in1014.9 mb 0.00 in0.0 mm 0.00 in0.0 mm 0.11 in2.8 mm
05:09 PM 51.4°F10.8°C 50.2°F10.1°C 95% 24.0 mph SSE38.6 kmh SSE 34.0 mph54.7 kmh 29.97 in1014.9 mb 0.00 in0.0 mm 0.00 in0.0 mm 0.11 in2.8 mm
05:12 PM 51.4°F10.8°C 50.2°F10.1°C 95% 23.0 mph SSE37.0 kmh SSE 39.0 mph62.8 kmh 29.97 in1014.9 mb 0.00 in0.0 mm 0.00 in0.0 mm 0.11 in2.8 mm
05:15 PM 51.6°F10.9°C 50.2°F10.1°C 95% 23.0 mph S37.0 kmh S 39.0 mph62.8 kmh 29.97 in1014.9 mb 0.00 in0.0 mm 0.00 in0.0 mm 0.11 in2.8 mm
05:18 PM 51.6°F10.9°C 50.2°F10.1°C 95% 23.0 mph S37.0 kmh S 39.0 mph62.8 kmh 29.96 in1014.6 mb 0.00 in0.0 mm 0.00 in0.0 mm 0.11 in2.8 mm
05:21 PM 51.6°F10.9°C 50.2°F10.1°C 95% 23.0 mph S37.0 kmh S 34.0 mph54.7 kmh 29.97 in1014.9 mb 0.00 in0.0 mm 0.00 in0.0 mm 0.11 in2.8 mm
05:24 PM 51.6°F10.9°C 50.2°F10.1°C 95% 22.0 mph S35.4 kmh S 33.0 mph53.1 kmh 29.97 in1014.9 mb 0.00 in0.0 mm 0.00 in0.0 mm 0.11 in2.8 mm
05:27 PM 51.6°F10.9°C 50.2°F10.1°C 95% 22.0 mph S35.4 kmh S 33.0 mph53.1 kmh 29.97 in1014.9 mb 0.00 in0.0 mm 0.00 in0.0 mm 0.11 in2.8 mm
05:30 PM 51.6°F10.9°C 50.2°F10.1°C 95% 22.0 mph S35.4 kmh S 31.0 mph49.9 kmh 29.97 in1014.9 mb 0.00 in0.0 mm 0.00 in0.0 mm 0.11 in2.8 mm
05:33 PM 51.6°F10.9°C 50.4°F10.2°C 95% 21.0 mph S33.8 kmh S 32.0 mph51.5 kmh 29.97 in1014.9 mb 0.00 in0.0 mm 0.00 in0.0 mm 0.11 in2.8 mm
05:36 PM 51.6°F10.9°C 50.4°F10.2°C 95% 22.0 mph SSE35.4 kmh SSE 35.0 mph56.3 kmh 29.96 in1014.6 mb 0.00 in0.0 mm 0.00 in0.0 mm 0.11 in2.8 mm
05:39 PM 51.4°F10.8°C 49.8°F9.9°C 94% 23.0 mph SSE37.0 kmh SSE 35.0 mph56.3 kmh 29.96 in1014.6 mb 0.00 in0.0 mm 0.00 in0.0 mm 0.11 in2.8 mm
05:42 PM 51.4°F10.8°C 49.8°F9.9°C 94% 24.0 mph SSE38.6 kmh SSE 35.0 mph56.3 kmh 29.96 in1014.6 mb 0.00 in0.0 mm 0.00 in0.0 mm 0.11 in2.8 mm
05:45 PM 51.3°F10.7°C 50.0°F10.0°C 95% 24.0 mph SSE38.6 kmh SSE 33.0 mph53.1 kmh 29.97 in1014.9 mb 0.00 in0.0 mm 0.00 in0.0 mm 0.11 in2.8 mm
05:48 PM 51.3°F10.7°C 49.8°F9.9°C 95% 24.0 mph SSE38.6 kmh SSE 32.0 mph51.5 kmh 29.96 in1014.6 mb 0.00 in0.0 mm 0.00 in0.0 mm 0.11 in2.8 mm
05:51 PM 51.3°F10.7°C 49.8°F9.9°C 95% 23.0 mph SSE37.0 kmh SSE 33.0 mph53.1 kmh 29.96 in1014.6 mb 0.00 in0.0 mm 0.00 in0.0 mm 0.11 in2.8 mm
05:54 PM 51.1°F10.6°C 49.6°F9.8°C 95% 24.0 mph SSE38.6 kmh SSE 36.0 mph57.9 kmh 29.96 in1014.6 mb 0.00 in0.0 mm 0.00 in0.0 mm 0.11 in2.8 mm
05:57 PM 51.1°F10.6°C 49.6°F9.8°C 95% 25.0 mph SSE40.2 kmh SSE 36.0 mph57.9 kmh 29.96 in1014.6 mb 0.00 in0.0 mm 0.00 in0.0 mm 0.11 in2.8 mm
06:00 PM 51.1°F10.6°C 49.6°F9.8°C 95% 25.0 mph SSE40.2 kmh SSE 36.0 mph57.9 kmh 29.96 in1014.6 mb 0.00 in0.0 mm 0.00 in0.0 mm 0.11 in2.8 mm
06:03 PM 51.1°F10.6°C 49.6°F9.8°C 95% 25.0 mph SSE40.2 kmh SSE 36.0 mph57.9 kmh 29.96 in1014.6 mb 0.00 in0.0 mm 0.00 in0.0 mm 0.11 in2.8 mm
06:06 PM 50.9°F10.5°C 49.5°F9.7°C 95% 24.0 mph SSE38.6 kmh SSE 35.0 mph56.3 kmh 29.96 in1014.6 mb 0.00 in0.0 mm 0.00 in0.0 mm 0.11 in2.8 mm
06:09 PM 50.9°F10.5°C 49.5°F9.7°C 95% 23.0 mph SSE37.0 kmh SSE 34.0 mph54.7 kmh 29.97 in1014.9 mb 0.00 in0.0 mm 0.00 in0.0 mm 0.11 in2.8 mm
06:12 PM 50.9°F10.5°C 49.5°F9.7°C 95% 22.0 mph SSE35.4 kmh SSE 31.0 mph49.9 kmh 29.97 in1014.9 mb 0.00 in0.0 mm 0.00 in0.0 mm 0.11 in2.8 mm
06:15 PM 50.9°F10.5°C 49.5°F9.7°C 95% 23.0 mph SSE37.0 kmh SSE 31.0 mph49.9 kmh 29.97 in1014.9 mb 0.00 in0.0 mm 0.00 in0.0 mm 0.11 in2.8 mm
06:18 PM 50.9°F10.5°C 49.5°F9.7°C 95% 22.0 mph SSE35.4 kmh SSE 31.0 mph49.9 kmh 29.97 in1014.9 mb 0.00 in0.0 mm 0.00 in0.0 mm 0.11 in2.8 mm
06:21 PM 50.9°F10.5°C 49.5°F9.7°C 95% 21.0 mph SSE33.8 kmh SSE 31.0 mph49.9 kmh 29.97 in1014.9 mb 0.00 in0.0 mm 0.00 in0.0 mm 0.11 in2.8 mm
06:24 PM 50.9°F10.5°C 49.5°F9.7°C 95% 20.0 mph SSE32.2 kmh SSE 27.0 mph43.5 kmh 29.97 in1014.9 mb 0.00 in0.0 mm 0.00 in0.0 mm 0.11 in2.8 mm
06:27 PM 50.9°F10.5°C 49.5°F9.7°C 95% 21.0 mph SSE33.8 kmh SSE 30.0 mph48.3 kmh 29.97 in1014.9 mb 0.00 in0.0 mm 0.00 in0.0 mm 0.11 in2.8 mm
06:30 PM 50.9°F10.5°C 49.8°F9.9°C 96% 21.0 mph SSE33.8 kmh SSE 30.0 mph48.3 kmh 29.97 in1014.9 mb 0.00 in0.0 mm 0.00 in0.0 mm 0.11 in2.8 mm
06:33 PM 51.1°F10.6°C 49.8°F9.9°C 96% 21.0 mph SSE33.8 kmh SSE 33.0 mph53.1 kmh 29.97 in1014.9 mb 0.00 in0.0 mm 0.00 in0.0 mm 0.11 in2.8 mm
06:36 PM 50.9°F10.5°C 49.8°F9.9°C 96% 21.0 mph SSE33.8 kmh SSE 33.0 mph53.1 kmh 29.97 in1014.9 mb 0.00 in0.0 mm 0.00 in0.0 mm 0.11 in2.8 mm
06:39 PM 50.9°F10.5°C 49.8°F9.9°C 96% 22.0 mph SSE35.4 kmh SSE 33.0 mph53.1 kmh 29.97 in1014.9 mb 0.00 in0.0 mm 0.00 in0.0 mm 0.11 in2.8 mm
06:42 PM 50.9°F10.5°C 49.8°F9.9°C 96% 22.0 mph SSE35.4 kmh SSE 32.0 mph51.5 kmh 29.97 in1014.9 mb 0.00 in0.0 mm 0.00 in0.0 mm 0.11 in2.8 mm
06:45 PM 50.9°F10.5°C 49.8°F9.9°C 96% 22.0 mph SSE35.4 kmh SSE 32.0 mph51.5 kmh 29.97 in1014.9 mb 0.00 in0.0 mm 0.00 in0.0 mm 0.11 in2.8 mm
06:48 PM 51.1°F10.6°C 49.8°F9.9°C 96% 21.0 mph SSE33.8 kmh SSE 32.0 mph51.5 kmh 29.97 in1014.9 mb 0.00 in0.0 mm 0.00 in0.0 mm 0.11 in2.8 mm
06:51 PM 51.1°F10.6°C 49.8°F9.9°C 96% 20.0 mph SSE32.2 kmh SSE 32.0 mph51.5 kmh 29.97 in1014.9 mb 0.00 in0.0 mm 0.00 in0.0 mm 0.11 in2.8 mm
06:54 PM 51.1°F10.6°C 50.0°F10.0°C 96% 20.0 mph SSE32.2 kmh SSE 34.0 mph54.7 kmh 29.97 in1014.9 mb 0.00 in0.0 mm 0.00 in0.0 mm 0.11 in2.8 mm
06:57 PM 51.3°F10.7°C 50.2°F10.1°C 96% 20.0 mph SSE32.2 kmh SSE 34.0 mph54.7 kmh 29.98 in1015.2 mb 0.00 in0.0 mm 0.00 in0.0 mm 0.11 in2.8 mm
07:00 PM 51.3°F10.7°C 50.2°F10.1°C 96% 19.0 mph S30.6 kmh S 34.0 mph54.7 kmh 29.98 in1015.2 mb 0.00 in0.0 mm 0.00 in0.0 mm 0.11 in2.8 mm
07:03 PM 51.3°F10.7°C 50.2°F10.1°C 96% 19.0 mph S30.6 kmh S 34.0 mph54.7 kmh 29.98 in1015.2 mb 0.00 in0.0 mm 0.00 in0.0 mm 0.11 in2.8 mm
07:06 PM 51.3°F10.7°C 50.2°F10.1°C 96% 19.0 mph S30.6 kmh S 32.0 mph51.5 kmh 29.98 in1015.2 mb 0.00 in0.0 mm 0.00 in0.0 mm 0.11 in2.8 mm
07:09 PM 51.4°F10.8°C 50.4°F10.2°C 96% 19.0 mph S30.6 kmh S 33.0 mph53.1 kmh 29.98 in1015.2 mb 0.00 in0.0 mm 0.00 in0.0 mm 0.11 in2.8 mm
07:12 PM 51.4°F10.8°C 50.4°F10.2°C 96% 20.0 mph S32.2 kmh S 33.0 mph53.1 kmh 29.98 in1015.2 mb 0.00 in0.0 mm 0.00 in0.0 mm 0.11 in2.8 mm
07:15 PM 51.4°F10.8°C 50.4°F10.2°C 96% 19.0 mph S30.6 kmh S 33.0 mph53.1 kmh 29.98 in1015.2 mb 0.00 in0.0 mm 0.00 in0.0 mm 0.11 in2.8 mm
07:18 PM 51.4°F10.8°C 50.4°F10.2°C 96% 18.0 mph S29.0 kmh S 31.0 mph49.9 kmh 29.98 in1015.2 mb 0.00 in0.0 mm 0.00 in0.0 mm 0.11 in2.8 mm
07:21 PM 51.4°F10.8°C 50.4°F10.2°C 96% 17.0 mph S27.4 kmh S 31.0 mph49.9 kmh 29.99 in1015.6 mb 0.00 in0.0 mm 0.00 in0.0 mm 0.11 in2.8 mm
07:24 PM 51.4°F10.8°C 50.4°F10.2°C 96% 18.0 mph S29.0 kmh S 31.0 mph49.9 kmh 29.99 in1015.6 mb 0.00 in0.0 mm 0.00 in0.0 mm 0.11 in2.8 mm
07:27 PM 51.3°F10.7°C 50.0°F10.0°C 95% 18.0 mph S29.0 kmh S 31.0 mph49.9 kmh 29.99 in1015.6 mb 0.00 in0.0 mm 0.00 in0.0 mm 0.11 in2.8 mm
07:30 PM 51.3°F10.7°C 50.0°F10.0°C 95% 19.0 mph S30.6 kmh S 30.0 mph48.3 kmh 29.99 in1015.6 mb 0.00 in0.0 mm 0.00 in0.0 mm 0.11 in2.8 mm
07:33 PM 51.3°F10.7°C 50.0°F10.0°C 95% 19.0 mph S30.6 kmh S 30.0 mph48.3 kmh 29.99 in1015.6 mb 0.00 in0.0 mm 0.00 in0.0 mm 0.11 in2.8 mm
07:36 PM 51.3°F10.7°C 50.2°F10.1°C 96% 18.0 mph S29.0 kmh S 30.0 mph48.3 kmh 29.99 in1015.6 mb 0.00 in0.0 mm 0.00 in0.0 mm 0.11 in2.8 mm
07:39 PM 51.3°F10.7°C 49.8°F9.9°C 95% 17.0 mph S27.4 kmh S 30.0 mph48.3 kmh 30.00 in1015.9 mb 0.00 in0.0 mm 0.00 in0.0 mm 0.11 in2.8 mm
07:42 PM 51.3°F10.7°C 50.2°F10.1°C 96% 16.0 mph S25.7 kmh S 25.0 mph40.2 kmh 30.00 in1015.9 mb 0.00 in0.0 mm 0.00 in0.0 mm 0.11 in2.8 mm
07:45 PM 51.3°F10.7°C 50.2°F10.1°C 96% 16.0 mph S25.7 kmh S 25.0 mph40.2 kmh 30.00 in1015.9 mb 0.00 in0.0 mm 0.00 in0.0 mm 0.11 in2.8 mm
07:48 PM 51.3°F10.7°C 50.2°F10.1°C 96% 16.0 mph S25.7 kmh S 25.0 mph40.2 kmh 30.00 in1015.9 mb 0.00 in0.0 mm 0.00 in0.0 mm 0.11 in2.8 mm
07:51 PM 51.3°F10.7°C 50.2°F10.1°C 96% 16.0 mph S25.7 kmh S 25.0 mph40.2 kmh 30.00 in1015.9 mb 0.00 in0.0 mm 0.00 in0.0 mm 0.11 in2.8 mm
07:54 PM 51.3°F10.7°C 50.2°F10.1°C 96% 16.0 mph S25.7 kmh S 26.0 mph41.8 kmh 30.00 in1015.9 mb 0.00 in0.0 mm 0.00 in0.0 mm 0.11 in2.8 mm
07:57 PM 51.3°F10.7°C 50.2°F10.1°C 96% 15.0 mph S24.1 kmh S 26.0 mph41.8 kmh 30.00 in1015.9 mb 0.00 in0.0 mm 0.00 in0.0 mm 0.11 in2.8 mm
08:00 PM 51.3°F10.7°C 50.2°F10.1°C 96% 15.0 mph S24.1 kmh S 26.0 mph41.8 kmh 30.00 in1015.9 mb 0.00 in0.0 mm 0.00 in0.0 mm 0.11 in2.8 mm
08:03 PM 51.4°F10.8°C 50.4°F10.2°C 96% 15.0 mph S24.1 kmh S 26.0 mph41.8 kmh 30.00 in1015.9 mb 0.00 in0.0 mm 0.00 in0.0 mm 0.11 in2.8 mm
08:06 PM 51.4°F10.8°C 50.4°F10.2°C 96% 15.0 mph S24.1 kmh S 26.0 mph41.8 kmh 30.00 in1015.9 mb 0.00 in0.0 mm 0.00 in0.0 mm 0.11 in2.8 mm
08:09 PM 51.4°F10.8°C 50.4°F10.2°C 96% 15.0 mph S24.1 kmh S 26.0 mph41.8 kmh 30.01 in1016.3 mb 0.00 in0.0 mm 0.00 in0.0 mm 0.11 in2.8 mm
08:12 PM 51.4°F10.8°C 50.4°F10.2°C 96% 15.0 mph S24.1 kmh S 26.0 mph41.8 kmh 30.01 in1016.3 mb 0.00 in0.0 mm 0.00 in0.0 mm 0.11 in2.8 mm
08:15 PM 51.3°F10.7°C 50.2°F10.1°C 96% 16.0 mph S25.7 kmh S 24.0 mph38.6 kmh 30.01 in1016.3 mb 0.00 in0.0 mm 0.00 in0.0 mm 0.11 in2.8 mm
08:18 PM 51.3°F10.7°C 50.2°F10.1°C 96% 16.0 mph S25.7 kmh S 25.0 mph40.2 kmh 30.01 in1016.3 mb 0.00 in0.0 mm 0.00 in0.0 mm 0.11 in2.8 mm
08:21 PM 51.3°F10.7°C 50.2°F10.1°C 96% 17.0 mph S27.4 kmh S 25.0 mph40.2 kmh 30.01 in1016.3 mb 0.00 in0.0 mm 0.00 in0.0 mm 0.11 in2.8 mm
08:24 PM 51.1°F10.6°C 50.0°F10.0°C 96% 17.0 mph S27.4 kmh S 25.0 mph40.2 kmh 30.02 in1016.6 mb 0.00 in0.0 mm 0.00 in0.0 mm 0.11 in2.8 mm
08:27 PM 51.1°F10.6°C 50.0°F10.0°C 96% 16.0 mph S25.7 kmh S 25.0 mph40.2 kmh 30.02 in1016.6 mb 0.00 in0.0 mm 0.00 in0.0 mm 0.11 in2.8 mm
08:30 PM 51.1°F10.6°C 50.0°F10.0°C 96% 16.0 mph S25.7 kmh S 25.0 mph40.2 kmh 30.02 in1016.6 mb 0.00 in0.0 mm 0.00 in0.0 mm 0.11 in2.8 mm
08:33 PM 51.1°F10.6°C 49.8°F9.9°C 96% 16.0 mph S25.7 kmh S 24.0 mph38.6 kmh 30.02 in1016.6 mb 0.00 in0.0 mm 0.00 in0.0 mm 0.11 in2.8 mm
08:36 PM 51.1°F10.6°C 49.8°F9.9°C 96% 16.0 mph S25.7 kmh S 24.0 mph38.6 kmh 30.02 in1016.6 mb 0.00 in0.0 mm 0.00 in0.0 mm 0.11 in2.8 mm
08:39 PM 50.9°F10.5°C 49.8°F9.9°C 96% 16.0 mph S25.7 kmh S 24.0 mph38.6 kmh 30.02 in1016.6 mb 0.00 in0.0 mm 0.00 in0.0 mm 0.11 in2.8 mm
08:42 PM 50.9°F10.5°C 49.8°F9.9°C 96% 15.0 mph S24.1 kmh S 22.0 mph35.4 kmh 30.02 in1016.6 mb 0.00 in0.0 mm 0.00 in0.0 mm 0.11 in2.8 mm
08:45 PM 50.9°F10.5°C 49.8°F9.9°C 96% 15.0 mph S24.1 kmh S 22.0 mph35.4 kmh 30.02 in1016.6 mb 0.00 in0.0 mm 0.00 in0.0 mm 0.11 in2.8 mm
08:48 PM 50.9°F10.5°C 49.8°F9.9°C 96% 15.0 mph S24.1 kmh S 22.0 mph35.4 kmh 30.03 in1016.9 mb 0.00 in0.0 mm 0.00 in0.0 mm 0.11 in2.8 mm
08:51 PM 50.9°F10.5°C 49.8°F9.9°C 96% 15.0 mph S24.1 kmh S 24.0 mph38.6 kmh 30.03 in1016.9 mb 0.00 in0.0 mm 0.00 in0.0 mm 0.11 in2.8 mm
08:54 PM 50.9°F10.5°C 49.8°F9.9°C 96% 15.0 mph S24.1 kmh S 24.0 mph38.6 kmh 30.02 in1016.6 mb 0.00 in0.0 mm 0.00 in0.0 mm 0.11 in2.8 mm
08:57 PM 50.9°F10.5°C 49.8°F9.9°C 96% 14.0 mph S22.5 kmh S 24.0 mph38.6 kmh 30.03 in1016.9 mb 0.00 in0.0 mm 0.00 in0.0 mm 0.11 in2.8 mm
09:00 PM 50.9°F10.5°C 49.8°F9.9°C 96% 15.0 mph S24.1 kmh S 24.0 mph38.6 kmh 30.03 in1016.9 mb 0.00 in0.0 mm 0.00 in0.0 mm 0.11 in2.8 mm
09:03 PM 51.1°F10.6°C 49.8°F9.9°C 96% 15.0 mph S24.1 kmh S 29.0 mph46.7 kmh 30.02 in1016.6 mb 0.00 in0.0 mm 0.00 in0.0 mm 0.11 in2.8 mm
09:06 PM 51.1°F10.6°C 49.8°F9.9°C 96% 15.0 mph S24.1 kmh S 29.0 mph46.7 kmh 30.03 in1016.9 mb 0.00 in0.0 mm 0.00 in0.0 mm 0.11 in2.8 mm
09:09 PM 51.1°F10.6°C 49.8°F9.9°C 96% 15.0 mph S24.1 kmh S 29.0 mph46.7 kmh 30.02 in1016.6 mb 0.00 in0.0 mm 0.00 in0.0 mm 0.11 in2.8 mm
09:12 PM 51.1°F10.6°C 49.8°F9.9°C 96% 15.0 mph S24.1 kmh S 26.0 mph41.8 kmh 30.02 in1016.6 mb 0.00 in0.0 mm 0.00 in0.0 mm 0.11 in2.8 mm
09:15 PM 50.9°F10.5°C 49.8°F9.9°C 96% 15.0 mph S24.1 kmh S 26.0 mph41.8 kmh 30.02 in1016.6 mb 0.00 in0.0 mm 0.00 in0.0 mm 0.11 in2.8 mm
09:18 PM 50.9°F10.5°C 49.8°F9.9°C 96% 14.0 mph S22.5 kmh S 25.0 mph40.2 kmh 30.02 in1016.6 mb 0.00 in0.0 mm 0.00 in0.0 mm 0.11 in2.8 mm
09:21 PM 50.9°F10.5°C 49.8°F9.9°C 96% 15.0 mph S24.1 kmh S 23.0 mph37.0 kmh 30.03 in1016.9 mb 0.00 in0.0 mm 0.00 in0.0 mm 0.11 in2.8 mm
09:24 PM 50.9°F10.5°C 49.8°F9.9°C 96% 15.0 mph S24.1 kmh S 23.0 mph37.0 kmh 30.03 in1016.9 mb 0.00 in0.0 mm 0.00 in0.0 mm 0.11 in2.8 mm
09:27 PM 50.9°F10.5°C 49.8°F9.9°C 96% 16.0 mph S25.7 kmh S 28.0 mph45.1 kmh 30.03 in1016.9 mb 0.00 in0.0 mm 0.00 in0.0 mm 0.11 in2.8 mm
09:30 PM 50.9°F10.5°C 49.8°F9.9°C 96% 16.0 mph S25.7 kmh S 28.0 mph45.1 kmh 30.03 in1016.9 mb 0.00 in0.0 mm 0.00 in0.0 mm 0.11 in2.8 mm
09:33 PM 51.1°F10.6°C 49.8°F9.9°C 96% 16.0 mph S25.7 kmh S 28.0 mph45.1 kmh 30.03 in1016.9 mb 0.00 in0.0 mm 0.00 in0.0 mm 0.11 in2.8 mm
09:36 PM 51.1°F10.6°C 49.8°F9.9°C 96% 15.0 mph S24.1 kmh S 28.0 mph45.1 kmh 30.03 in1016.9 mb 0.00 in0.0 mm 0.00 in0.0 mm 0.11 in2.8 mm
09:39 PM 51.1°F10.6°C 50.0°F10.0°C 96% 16.0 mph S25.7 kmh S 25.0 mph40.2 kmh 30.03 in1016.9 mb 0.00 in0.0 mm 0.00 in0.0 mm 0.11 in2.8 mm
09:42 PM 51.1°F10.6°C 50.0°F10.0°C 96% 16.0 mph S25.7 kmh S 29.0 mph46.7 kmh 30.03 in1016.9 mb 0.00 in0.0 mm 0.00 in0.0 mm 0.11 in2.8 mm
09:45 PM 51.1°F10.6°C 50.0°F10.0°C 96% 17.0 mph S27.4 kmh S 29.0 mph46.7 kmh 30.04 in1017.3 mb 0.00 in0.0 mm 0.00 in0.0 mm 0.11 in2.8 mm
09:48 PM 51.1°F10.6°C 50.0°F10.0°C 96% 16.0 mph S25.7 kmh S 29.0 mph46.7 kmh 30.04 in1017.3 mb 0.00 in0.0 mm 0.00 in0.0 mm 0.11 in2.8 mm
09:51 PM 51.1°F10.6°C 50.0°F10.0°C 96% 16.0 mph S25.7 kmh S 25.0 mph40.2 kmh 30.04 in1017.3 mb 0.00 in0.0 mm 0.00 in0.0 mm 0.11 in2.8 mm
09:54 PM 51.3°F10.7°C 50.2°F10.1°C 96% 16.0 mph S25.7 kmh S 33.0 mph53.1 kmh 30.03 in1016.9 mb 0.00 in0.0 mm 0.00 in0.0 mm 0.11 in2.8 mm
09:57 PM 51.3°F10.7°C 50.2°F10.1°C 96% 15.0 mph S24.1 kmh S 33.0 mph53.1 kmh 30.04 in1017.3 mb 0.00 in0.0 mm 0.00 in0.0 mm 0.11 in2.8 mm
10:00 PM 51.1°F10.6°C 50.0°F10.0°C 96% 16.0 mph S25.7 kmh S 33.0 mph53.1 kmh 30.03 in1016.9 mb 0.00 in0.0 mm 0.00 in0.0 mm 0.11 in2.8 mm
10:03 PM 51.3°F10.7°C 50.2°F10.1°C 96% 14.0 mph S22.5 kmh S 25.0 mph40.2 kmh 30.04 in1017.3 mb 0.00 in0.0 mm 0.00 in0.0 mm 0.11 in2.8 mm
10:06 PM 51.1°F10.6°C 50.0°F10.0°C 96% 14.0 mph S22.5 kmh S 25.0 mph40.2 kmh 30.03 in1016.9 mb 0.00 in0.0 mm 0.00 in0.0 mm 0.11 in2.8 mm
10:09 PM 51.1°F10.6°C 50.0°F10.0°C 96% 14.0 mph S22.5 kmh S 25.0 mph40.2 kmh 30.03 in1016.9 mb 0.00 in0.0 mm 0.00 in0.0 mm 0.11 in2.8 mm
10:12 PM 51.1°F10.6°C 50.0°F10.0°C 96% 13.0 mph S20.9 kmh S 22.0 mph35.4 kmh 30.04 in1017.3 mb 0.00 in0.0 mm 0.00 in0.0 mm 0.11 in2.8 mm
10:15 PM 51.1°F10.6°C 50.0°F10.0°C 96% 13.0 mph S20.9 kmh S 21.0 mph33.8 kmh 30.03 in1016.9 mb 0.00 in0.0 mm 0.00 in0.0 mm 0.11 in2.8 mm
10:18 PM 51.1°F10.6°C 50.0°F10.0°C 96% 13.0 mph S20.9 kmh S 21.0 mph33.8 kmh 30.04 in1017.3 mb 0.00 in0.0 mm 0.00 in0.0 mm 0.11 in2.8 mm
10:21 PM 51.1°F10.6°C 50.0°F10.0°C 96% 13.0 mph S20.9 kmh S 21.0 mph33.8 kmh 30.04 in1017.3 mb 0.00 in0.0 mm 0.00 in0.0 mm 0.11 in2.8 mm
10:24 PM 51.1°F10.6°C 50.0°F10.0°C 96% 14.0 mph S22.5 kmh S 21.0 mph33.8 kmh 30.04 in1017.3 mb 0.00 in0.0 mm 0.00 in0.0 mm 0.11 in2.8 mm
10:27 PM 51.1°F10.6°C 50.0°F10.0°C 96% 14.0 mph S22.5 kmh S 21.0 mph33.8 kmh 30.04 in1017.3 mb 0.00 in0.0 mm 0.00 in0.0 mm 0.11 in2.8 mm
10:30 PM 51.1°F10.6°C 50.0°F10.0°C 96% 14.0 mph S22.5 kmh S 22.0 mph35.4 kmh 30.04 in1017.3 mb 0.00 in0.0 mm 0.00 in0.0 mm 0.11 in2.8 mm
10:33 PM 51.1°F10.6°C 50.0°F10.0°C 96% 14.0 mph S22.5 kmh S 22.0 mph35.4 kmh 30.04 in1017.3 mb 0.00 in0.0 mm 0.00 in0.0 mm 0.11 in2.8 mm
10:36 PM 51.1°F10.6°C 50.0°F10.0°C 96% 13.0 mph S20.9 kmh S 22.0 mph35.4 kmh 30.04 in1017.3 mb 0.00 in0.0 mm 0.00 in0.0 mm 0.11 in2.8 mm
10:39 PM 51.1°F10.6°C 50.0°F10.0°C 96% 13.0 mph S20.9 kmh S 21.0 mph33.8 kmh 30.04 in1017.3 mb 0.00 in0.0 mm 0.00 in0.0 mm 0.11 in2.8 mm
10:42 PM 51.1°F10.6°C 50.0°F10.0°C 96% 13.0 mph S20.9 kmh S 22.0 mph35.4 kmh 30.04 in1017.3 mb 0.00 in0.0 mm 0.00 in0.0 mm 0.11 in2.8 mm
10:45 PM 51.1°F10.6°C 50.4°F10.2°C 97% 13.0 mph S20.9 kmh S 22.0 mph35.4 kmh 30.04 in1017.3 mb 0.00 in0.0 mm 0.00 in0.0 mm 0.11 in2.8 mm
10:48 PM 51.1°F10.6°C 50.0°F10.0°C 96% 13.0 mph S20.9 kmh S 22.0 mph35.4 kmh 30.04 in1017.3 mb 0.00 in0.0 mm 0.00 in0.0 mm 0.11 in2.8 mm
10:51 PM 51.1°F10.6°C 50.0°F10.0°C 96% 13.0 mph S20.9 kmh S 22.0 mph35.4 kmh 30.04 in1017.3 mb 0.00 in0.0 mm 0.00 in0.0 mm 0.11 in2.8 mm
10:54 PM 51.1°F10.6°C 50.0°F10.0°C 96% 12.0 mph S19.3 kmh S 20.0 mph32.2 kmh 30.04 in1017.3 mb 0.00 in0.0 mm 0.00 in0.0 mm 0.11 in2.8 mm
10:57 PM 51.1°F10.6°C 50.0°F10.0°C 96% 12.0 mph S19.3 kmh S 20.0 mph32.2 kmh 30.04 in1017.3 mb 0.00 in0.0 mm 0.00 in0.0 mm 0.11 in2.8 mm
11:00 PM 51.1°F10.6°C 50.0°F10.0°C 96% 12.0 mph S19.3 kmh S 20.0 mph32.2 kmh 30.04 in1017.3 mb 0.00 in0.0 mm 0.00 in0.0 mm 0.10 in2.5 mm
11:03 PM 51.1°F10.6°C 50.0°F10.0°C 96% 12.0 mph S19.3 kmh S 21.0 mph33.8 kmh 30.04 in1017.3 mb 0.00 in0.0 mm 0.00 in0.0 mm 0.10 in2.5 mm
11:06 PM 51.1°F10.6°C 50.0°F10.0°C 96% 13.0 mph S20.9 kmh S 21.0 mph33.8 kmh 30.04 in1017.3 mb 0.00 in0.0 mm 0.00 in0.0 mm 0.10 in2.5 mm
11:09 PM 51.1°F10.6°C 50.0°F10.0°C 96% 13.0 mph S20.9 kmh S 21.0 mph33.8 kmh 30.04 in1017.3 mb 0.00 in0.0 mm 0.00 in0.0 mm 0.10 in2.5 mm
11:12 PM 51.1°F10.6°C 50.0°F10.0°C 96% 14.0 mph S22.5 kmh S 21.0 mph33.8 kmh 30.04 in1017.3 mb 0.00 in0.0 mm 0.00 in0.0 mm 0.10 in2.5 mm
11:15 PM 51.1°F10.6°C 50.4°F10.2°C 97% 14.0 mph S22.5 kmh S 21.0 mph33.8 kmh 30.04 in1017.3 mb 0.00 in0.0 mm 0.00 in0.0 mm 0.10 in2.5 mm
11:18 PM 51.1°F10.6°C 50.0°F10.0°C 96% 14.0 mph S22.5 kmh S 22.0 mph35.4 kmh 30.04 in1017.3 mb 0.00 in0.0 mm 0.00 in0.0 mm 0.10 in2.5 mm
11:21 PM 51.1°F10.6°C 50.0°F10.0°C 96% 13.0 mph S20.9 kmh S 22.0 mph35.4 kmh 30.04 in1017.3 mb 0.00 in0.0 mm 0.00 in0.0 mm 0.10 in2.5 mm
11:24 PM 51.1°F10.6°C 50.0°F10.0°C 96% 13.0 mph S20.9 kmh S 22.0 mph35.4 kmh 30.04 in1017.3 mb 0.00 in0.0 mm 0.00 in0.0 mm 0.10 in2.5 mm
11:27 PM 51.1°F10.6°C 49.8°F9.9°C 96% 13.0 mph S20.9 kmh S 22.0 mph35.4 kmh 30.04 in1017.3 mb 0.00 in0.0 mm 0.00 in0.0 mm 0.10 in2.5 mm
11:30 PM 51.1°F10.6°C 49.8°F9.9°C 96% 13.0 mph S20.9 kmh S 22.0 mph35.4 kmh 30.04 in1017.3 mb 0.00 in0.0 mm 0.00 in0.0 mm 0.10 in2.5 mm
11:33 PM 51.1°F10.6°C 49.8°F9.9°C 96% 14.0 mph S22.5 kmh S 21.0 mph33.8 kmh 30.04 in1017.3 mb 0.00 in0.0 mm 0.00 in0.0 mm 0.10 in2.5 mm
11:36 PM 51.1°F10.6°C 49.8°F9.9°C 96% 15.0 mph S24.1 kmh S 24.0 mph38.6 kmh 30.04 in1017.3 mb 0.00 in0.0 mm 0.00 in0.0 mm 0.10 in2.5 mm
11:39 PM 51.1°F10.6°C 49.8°F9.9°C 96% 15.0 mph S24.1 kmh S 24.0 mph38.6 kmh 30.04 in1017.3 mb 0.00 in0.0 mm 0.00 in0.0 mm 0.10 in2.5 mm
11:42 PM 51.1°F10.6°C 49.8°F9.9°C 96% 15.0 mph S24.1 kmh S 24.0 mph38.6 kmh 30.04 in1017.3 mb 0.00 in0.0 mm 0.00 in0.0 mm 0.10 in2.5 mm
11:45 PM 51.1°F10.6°C 49.8°F9.9°C 96% 14.0 mph S22.5 kmh S 24.0 mph38.6 kmh 30.04 in1017.3 mb 0.00 in0.0 mm 0.00 in0.0 mm 0.10 in2.5 mm
11:48 PM 51.1°F10.6°C 49.8°F9.9°C 96% 13.0 mph S20.9 kmh S 21.0 mph33.8 kmh 30.04 in1017.3 mb 0.00 in0.0 mm 0.00 in0.0 mm 0.10 in2.5 mm
11:51 PM 50.9°F10.5°C 50.0°F10.0°C 97% 13.0 mph S20.9 kmh S 20.0 mph32.2 kmh 30.04 in1017.3 mb 0.00 in0.0 mm 0.00 in0.0 mm 0.10 in2.5 mm
11:54 PM 51.1°F10.6°C 50.2°F10.1°C 97% 13.0 mph S20.9 kmh S 20.0 mph32.2 kmh 30.04 in1017.3 mb 0.00 in0.0 mm 0.00 in0.0 mm 0.10 in2.5 mm
11:57 PM 50.9°F10.5°C 50.0°F10.0°C 97% 13.0 mph S20.9 kmh S 18.0 mph29.0 kmh 30.04 in1017.3 mb 0.00 in0.0 mm 0.00 in0.0 mm 0.10 in2.5 mm